<?xml version="1.0" encoding="UTF-8" standalone="no" ?>
<gpx xmlns="http://www.topografix.com/GPX/1/1" xmlns:xsi="http://www.w3.org/2001/XMLSchema-instance" xsi:schemaLocation="http://www.topografix.com/GPX/1/1 http://www.topografix.com/GPX/1/1/gpx.xsd" version="1.1" creator="VisuGPX - https://www.visugpx.com">
  <metadata>
    <name>Parc de Sceaux à Bièvres</name>
    <desc><![CDATA[Randonnée de 22 km en ligne à partir de la gare du Parc de Sceaux. Retour par la gare d'Antony]]></desc>
  </metadata>
  <trk>
    <name><![CDATA[Parc de Sceaux à Bièvres_R]]></name>
    <desc><![CDATA[<p>Heure de départ: 09:13 10 nov. 2019<br/>Heure d'arrivée: 16:49 10 nov. 2019<br/>Distance: 21,4 km (07:36)<br/>Temps déplacement: 04:58<br/>Vitesse moyenne: 2,81 km/h<br/>Vitesse moyenne mouv.: 4,3 km/h<br/>Vitesse Max.: 8,74 km/h<br/>Altitude minimale: 36 m<br/>Altitude maximale: 185 m<br/>Vitesse de montée: 158,2 m/h<br/>Vitesse de descente: -129,3 m/h<br/>Gain d'altitude: 524 m<br/>Perte d'altitude: -539 m<br/>Temps de montée: 03:19<br/>Temps de descente: 04:10<br/></p><hr align="center" width="480" style="height: 2px; width: 517px"/>]]></desc>
    <trkseg>
      <trkpt lat="48.77083" lon="2.30943">
        <ele>72.37</ele>
        <time>2019-11-10T08:13:07Z</time>
      </trkpt>
      <trkpt lat="48.77089" lon="2.30916">
        <ele>82.62</ele>
        <time>2019-11-10T08:13:30Z</time>
      </trkpt>
      <trkpt lat="48.77089" lon="2.30887">
        <ele>82.73</ele>
        <time>2019-11-10T08:13:45Z</time>
      </trkpt>
      <trkpt lat="48.77087" lon="2.30858">
        <ele>82.41</ele>
        <time>2019-11-10T08:13:57Z</time>
      </trkpt>
      <trkpt lat="48.77086" lon="2.30828">
        <ele>82.62</ele>
        <time>2019-11-10T08:14:18Z</time>
      </trkpt>
      <trkpt lat="48.77082" lon="2.308">
        <ele>83.29</ele>
        <time>2019-11-10T08:14:30Z</time>
      </trkpt>
      <trkpt lat="48.77079" lon="2.30771">
        <ele>84.41</ele>
        <time>2019-11-10T08:14:48Z</time>
      </trkpt>
      <trkpt lat="48.7707" lon="2.30747">
        <ele>86.17</ele>
        <time>2019-11-10T08:15:02Z</time>
      </trkpt>
      <trkpt lat="48.77084" lon="2.30728">
        <ele>85.16</ele>
        <time>2019-11-10T08:15:52Z</time>
      </trkpt>
      <trkpt lat="48.77103" lon="2.30717">
        <ele>85.18</ele>
        <time>2019-11-10T08:16:06Z</time>
      </trkpt>
      <trkpt lat="48.7712" lon="2.30702">
        <ele>85.07</ele>
        <time>2019-11-10T08:16:23Z</time>
      </trkpt>
      <trkpt lat="48.77134" lon="2.30684">
        <ele>84.87</ele>
        <time>2019-11-10T08:16:37Z</time>
      </trkpt>
      <trkpt lat="48.7715" lon="2.30666">
        <ele>83.94</ele>
        <time>2019-11-10T08:16:52Z</time>
      </trkpt>
      <trkpt lat="48.77163" lon="2.30646">
        <ele>83.4</ele>
        <time>2019-11-10T08:17:03Z</time>
      </trkpt>
      <trkpt lat="48.77176" lon="2.30627">
        <ele>83.18</ele>
        <time>2019-11-10T08:17:19Z</time>
      </trkpt>
      <trkpt lat="48.77182" lon="2.30601">
        <ele>83.94</ele>
        <time>2019-11-10T08:17:32Z</time>
      </trkpt>
      <trkpt lat="48.77186" lon="2.30573">
        <ele>84.22</ele>
        <time>2019-11-10T08:17:46Z</time>
      </trkpt>
      <trkpt lat="48.77183" lon="2.30544">
        <ele>86.92</ele>
        <time>2019-11-10T08:18:54Z</time>
      </trkpt>
      <trkpt lat="48.77188" lon="2.30518">
        <ele>89.11</ele>
        <time>2019-11-10T08:19:06Z</time>
      </trkpt>
      <trkpt lat="48.77179" lon="2.30492">
        <ele>90.03</ele>
        <time>2019-11-10T08:19:15Z</time>
      </trkpt>
      <trkpt lat="48.77179" lon="2.30465">
        <ele>90.41</ele>
        <time>2019-11-10T08:19:32Z</time>
      </trkpt>
      <trkpt lat="48.77187" lon="2.3044">
        <ele>90.26</ele>
        <time>2019-11-10T08:19:44Z</time>
      </trkpt>
      <trkpt lat="48.77186" lon="2.30412">
        <ele>89.76</ele>
        <time>2019-11-10T08:20:00Z</time>
      </trkpt>
      <trkpt lat="48.77206" lon="2.30409">
        <ele>91.36</ele>
        <time>2019-11-10T08:20:13Z</time>
      </trkpt>
      <trkpt lat="48.77224" lon="2.3041">
        <ele>93.79</ele>
        <time>2019-11-10T08:20:27Z</time>
      </trkpt>
      <trkpt lat="48.77242" lon="2.30402">
        <ele>97.84</ele>
        <time>2019-11-10T08:20:43Z</time>
      </trkpt>
      <trkpt lat="48.77261" lon="2.30396">
        <ele>99.73</ele>
        <time>2019-11-10T08:20:57Z</time>
      </trkpt>
      <trkpt lat="48.77279" lon="2.30391">
        <ele>101.08</ele>
        <time>2019-11-10T08:21:16Z</time>
      </trkpt>
      <trkpt lat="48.77298" lon="2.30382">
        <ele>100.53</ele>
        <time>2019-11-10T08:21:31Z</time>
      </trkpt>
      <trkpt lat="48.77316" lon="2.30379">
        <ele>100.52</ele>
        <time>2019-11-10T08:21:51Z</time>
      </trkpt>
      <trkpt lat="48.77333" lon="2.30369">
        <ele>101.2</ele>
        <time>2019-11-10T08:22:01Z</time>
      </trkpt>
      <trkpt lat="48.7735" lon="2.30353">
        <ele>101.02</ele>
        <time>2019-11-10T08:22:15Z</time>
      </trkpt>
      <trkpt lat="48.77369" lon="2.30356">
        <ele>100.42</ele>
        <time>2019-11-10T08:22:36Z</time>
      </trkpt>
      <trkpt lat="48.77388" lon="2.30353">
        <ele>101.31</ele>
        <time>2019-11-10T08:22:50Z</time>
      </trkpt>
      <trkpt lat="48.77405" lon="2.30342">
        <ele>101.34</ele>
        <time>2019-11-10T08:23:05Z</time>
      </trkpt>
      <trkpt lat="48.77424" lon="2.30338">
        <ele>99.88</ele>
        <time>2019-11-10T08:23:21Z</time>
      </trkpt>
      <trkpt lat="48.77438" lon="2.30318">
        <ele>98.76</ele>
        <time>2019-11-10T08:23:34Z</time>
      </trkpt>
      <trkpt lat="48.77437" lon="2.30288">
        <ele>96.14</ele>
        <time>2019-11-10T08:23:56Z</time>
      </trkpt>
      <trkpt lat="48.77434" lon="2.3026">
        <ele>96.41</ele>
        <time>2019-11-10T08:24:11Z</time>
      </trkpt>
      <trkpt lat="48.77429" lon="2.30233">
        <ele>96.05</ele>
        <time>2019-11-10T08:24:26Z</time>
      </trkpt>
      <trkpt lat="48.77444" lon="2.30213">
        <ele>97.37</ele>
        <time>2019-11-10T08:24:42Z</time>
      </trkpt>
      <trkpt lat="48.77463" lon="2.30208">
        <ele>99.67</ele>
        <time>2019-11-10T08:25:02Z</time>
      </trkpt>
      <trkpt lat="48.77466" lon="2.30179">
        <ele>98.84</ele>
        <time>2019-11-10T08:32:54Z</time>
      </trkpt>
      <trkpt lat="48.77465" lon="2.30151">
        <ele>99.38</ele>
        <time>2019-11-10T08:33:05Z</time>
      </trkpt>
      <trkpt lat="48.7746" lon="2.30123">
        <ele>101.93</ele>
        <time>2019-11-10T08:33:23Z</time>
      </trkpt>
      <trkpt lat="48.77457" lon="2.30095">
        <ele>103.13</ele>
        <time>2019-11-10T08:33:38Z</time>
      </trkpt>
      <trkpt lat="48.77452" lon="2.30067">
        <ele>104.05</ele>
        <time>2019-11-10T08:33:52Z</time>
      </trkpt>
      <trkpt lat="48.77452" lon="2.3004">
        <ele>104.15</ele>
        <time>2019-11-10T08:34:01Z</time>
      </trkpt>
      <trkpt lat="48.77461" lon="2.30014">
        <ele>105.84</ele>
        <time>2019-11-10T08:34:18Z</time>
      </trkpt>
      <trkpt lat="48.77477" lon="2.29997">
        <ele>107.12</ele>
        <time>2019-11-10T08:34:32Z</time>
      </trkpt>
      <trkpt lat="48.77487" lon="2.29973">
        <ele>108.74</ele>
        <time>2019-11-10T08:34:50Z</time>
      </trkpt>
      <trkpt lat="48.77502" lon="2.29955">
        <ele>108.36</ele>
        <time>2019-11-10T08:35:08Z</time>
      </trkpt>
      <trkpt lat="48.77508" lon="2.29928">
        <ele>108.29</ele>
        <time>2019-11-10T08:35:27Z</time>
      </trkpt>
      <trkpt lat="48.77507" lon="2.29898">
        <ele>109</ele>
        <time>2019-11-10T08:35:42Z</time>
      </trkpt>
      <trkpt lat="48.77501" lon="2.29872">
        <ele>109.34</ele>
        <time>2019-11-10T08:35:57Z</time>
      </trkpt>
      <trkpt lat="48.77496" lon="2.29844">
        <ele>109.66</ele>
        <time>2019-11-10T08:36:14Z</time>
      </trkpt>
      <trkpt lat="48.7749" lon="2.29815">
        <ele>109.4</ele>
        <time>2019-11-10T08:36:30Z</time>
      </trkpt>
      <trkpt lat="48.77489" lon="2.29785">
        <ele>107.9</ele>
        <time>2019-11-10T08:36:42Z</time>
      </trkpt>
      <trkpt lat="48.77488" lon="2.29757">
        <ele>105.91</ele>
        <time>2019-11-10T08:37:01Z</time>
      </trkpt>
      <trkpt lat="48.7749" lon="2.29725">
        <ele>104.82</ele>
        <time>2019-11-10T08:37:11Z</time>
      </trkpt>
      <trkpt lat="48.77479" lon="2.29702">
        <ele>101.89</ele>
        <time>2019-11-10T08:37:25Z</time>
      </trkpt>
      <trkpt lat="48.77473" lon="2.29676">
        <ele>99.35</ele>
        <time>2019-11-10T08:37:41Z</time>
      </trkpt>
      <trkpt lat="48.77471" lon="2.29646">
        <ele>97.77</ele>
        <time>2019-11-10T08:38:00Z</time>
      </trkpt>
      <trkpt lat="48.77465" lon="2.29619">
        <ele>96.73</ele>
        <time>2019-11-10T08:38:18Z</time>
      </trkpt>
      <trkpt lat="48.77458" lon="2.29591">
        <ele>94.17</ele>
        <time>2019-11-10T08:38:31Z</time>
      </trkpt>
      <trkpt lat="48.77459" lon="2.29562">
        <ele>92.52</ele>
        <time>2019-11-10T08:38:39Z</time>
      </trkpt>
      <trkpt lat="48.77455" lon="2.29535">
        <ele>86.72</ele>
        <time>2019-11-10T08:39:01Z</time>
      </trkpt>
      <trkpt lat="48.77452" lon="2.29508">
        <ele>87.91</ele>
        <time>2019-11-10T08:39:13Z</time>
      </trkpt>
      <trkpt lat="48.77448" lon="2.29478">
        <ele>88.19</ele>
        <time>2019-11-10T08:39:24Z</time>
      </trkpt>
      <trkpt lat="48.77443" lon="2.2945">
        <ele>85.48</ele>
        <time>2019-11-10T08:39:41Z</time>
      </trkpt>
      <trkpt lat="48.77433" lon="2.29425">
        <ele>84.72</ele>
        <time>2019-11-10T08:40:18Z</time>
      </trkpt>
      <trkpt lat="48.77431" lon="2.29396">
        <ele>83</ele>
        <time>2019-11-10T08:40:34Z</time>
      </trkpt>
      <trkpt lat="48.77429" lon="2.29368">
        <ele>81.07</ele>
        <time>2019-11-10T08:40:50Z</time>
      </trkpt>
      <trkpt lat="48.77424" lon="2.29342">
        <ele>82.53</ele>
        <time>2019-11-10T08:41:03Z</time>
      </trkpt>
      <trkpt lat="48.7742" lon="2.29315">
        <ele>83.63</ele>
        <time>2019-11-10T08:41:13Z</time>
      </trkpt>
      <trkpt lat="48.77411" lon="2.29291">
        <ele>83.5</ele>
        <time>2019-11-10T08:41:22Z</time>
      </trkpt>
      <trkpt lat="48.77406" lon="2.29264">
        <ele>81.69</ele>
        <time>2019-11-10T08:41:36Z</time>
      </trkpt>
      <trkpt lat="48.77402" lon="2.29235">
        <ele>79.8</ele>
        <time>2019-11-10T08:41:48Z</time>
      </trkpt>
      <trkpt lat="48.77399" lon="2.29208">
        <ele>77.95</ele>
        <time>2019-11-10T08:42:04Z</time>
      </trkpt>
      <trkpt lat="48.77392" lon="2.29182">
        <ele>76.45</ele>
        <time>2019-11-10T08:42:24Z</time>
      </trkpt>
      <trkpt lat="48.77384" lon="2.29157">
        <ele>76.08</ele>
        <time>2019-11-10T08:42:35Z</time>
      </trkpt>
      <trkpt lat="48.77383" lon="2.29127">
        <ele>77.01</ele>
        <time>2019-11-10T08:42:52Z</time>
      </trkpt>
      <trkpt lat="48.77375" lon="2.29096">
        <ele>77.05</ele>
        <time>2019-11-10T08:43:02Z</time>
      </trkpt>
      <trkpt lat="48.77372" lon="2.29066">
        <ele>75.77</ele>
        <time>2019-11-10T08:43:25Z</time>
      </trkpt>
      <trkpt lat="48.77371" lon="2.29037">
        <ele>74.93</ele>
        <time>2019-11-10T08:43:37Z</time>
      </trkpt>
      <trkpt lat="48.77365" lon="2.29011">
        <ele>75.35</ele>
        <time>2019-11-10T08:43:55Z</time>
      </trkpt>
      <trkpt lat="48.77362" lon="2.28983">
        <ele>75.76</ele>
        <time>2019-11-10T08:44:04Z</time>
      </trkpt>
      <trkpt lat="48.77359" lon="2.28956">
        <ele>75.56</ele>
        <time>2019-11-10T08:44:17Z</time>
      </trkpt>
      <trkpt lat="48.77358" lon="2.28929">
        <ele>76.39</ele>
        <time>2019-11-10T08:44:40Z</time>
      </trkpt>
      <trkpt lat="48.77351" lon="2.28901">
        <ele>76.15</ele>
        <time>2019-11-10T08:44:52Z</time>
      </trkpt>
      <trkpt lat="48.77342" lon="2.28876">
        <ele>74.8</ele>
        <time>2019-11-10T08:45:07Z</time>
      </trkpt>
      <trkpt lat="48.7734" lon="2.28847">
        <ele>74.38</ele>
        <time>2019-11-10T08:45:18Z</time>
      </trkpt>
      <trkpt lat="48.77336" lon="2.28819">
        <ele>74.44</ele>
        <time>2019-11-10T08:45:27Z</time>
      </trkpt>
      <trkpt lat="48.77328" lon="2.28792">
        <ele>74.05</ele>
        <time>2019-11-10T08:45:43Z</time>
      </trkpt>
      <trkpt lat="48.77325" lon="2.28764">
        <ele>73.1</ele>
        <time>2019-11-10T08:46:06Z</time>
      </trkpt>
      <trkpt lat="48.77319" lon="2.28736">
        <ele>74.02</ele>
        <time>2019-11-10T08:46:23Z</time>
      </trkpt>
      <trkpt lat="48.77316" lon="2.28708">
        <ele>74.53</ele>
        <time>2019-11-10T08:46:36Z</time>
      </trkpt>
      <trkpt lat="48.77316" lon="2.2868">
        <ele>76.45</ele>
        <time>2019-11-10T08:46:50Z</time>
      </trkpt>
      <trkpt lat="48.77301" lon="2.28663">
        <ele>80.32</ele>
        <time>2019-11-10T08:47:20Z</time>
      </trkpt>
      <trkpt lat="48.77286" lon="2.28649">
        <ele>79.24</ele>
        <time>2019-11-10T08:47:41Z</time>
      </trkpt>
      <trkpt lat="48.77274" lon="2.28627">
        <ele>79.64</ele>
        <time>2019-11-10T08:49:41Z</time>
      </trkpt>
      <trkpt lat="48.77276" lon="2.286">
        <ele>79.84</ele>
        <time>2019-11-10T08:50:26Z</time>
      </trkpt>
      <trkpt lat="48.77284" lon="2.28572">
        <ele>79.65</ele>
        <time>2019-11-10T08:50:55Z</time>
      </trkpt>
      <trkpt lat="48.77284" lon="2.28544">
        <ele>81.33</ele>
        <time>2019-11-10T08:52:30Z</time>
      </trkpt>
      <trkpt lat="48.77274" lon="2.28522">
        <ele>81.9</ele>
        <time>2019-11-10T08:52:43Z</time>
      </trkpt>
      <trkpt lat="48.77256" lon="2.28515">
        <ele>82.98</ele>
        <time>2019-11-10T08:52:58Z</time>
      </trkpt>
      <trkpt lat="48.77239" lon="2.28503">
        <ele>84.08</ele>
        <time>2019-11-10T08:53:15Z</time>
      </trkpt>
      <trkpt lat="48.77221" lon="2.28495">
        <ele>85.52</ele>
        <time>2019-11-10T08:53:33Z</time>
      </trkpt>
      <trkpt lat="48.77203" lon="2.28488">
        <ele>86.12</ele>
        <time>2019-11-10T08:53:44Z</time>
      </trkpt>
      <trkpt lat="48.77184" lon="2.28481">
        <ele>87.91</ele>
        <time>2019-11-10T08:53:57Z</time>
      </trkpt>
      <trkpt lat="48.77165" lon="2.28482">
        <ele>89.9</ele>
        <time>2019-11-10T08:54:15Z</time>
      </trkpt>
      <trkpt lat="48.77146" lon="2.28489">
        <ele>89.24</ele>
        <time>2019-11-10T08:54:33Z</time>
      </trkpt>
      <trkpt lat="48.77129" lon="2.28495">
        <ele>89.13</ele>
        <time>2019-11-10T08:54:47Z</time>
      </trkpt>
      <trkpt lat="48.7711" lon="2.28501">
        <ele>88.93</ele>
        <time>2019-11-10T08:55:04Z</time>
      </trkpt>
      <trkpt lat="48.77092" lon="2.28509">
        <ele>88.88</ele>
        <time>2019-11-10T08:55:20Z</time>
      </trkpt>
      <trkpt lat="48.77073" lon="2.28517">
        <ele>85.01</ele>
        <time>2019-11-10T08:56:29Z</time>
      </trkpt>
      <trkpt lat="48.77055" lon="2.28509">
        <ele>83.46</ele>
        <time>2019-11-10T08:56:46Z</time>
      </trkpt>
      <trkpt lat="48.77037" lon="2.28505">
        <ele>85.03</ele>
        <time>2019-11-10T08:57:04Z</time>
      </trkpt>
      <trkpt lat="48.77018" lon="2.28508">
        <ele>87.36</ele>
        <time>2019-11-10T08:57:20Z</time>
      </trkpt>
      <trkpt lat="48.77" lon="2.28506">
        <ele>89.72</ele>
        <time>2019-11-10T08:57:33Z</time>
      </trkpt>
      <trkpt lat="48.7698" lon="2.2851">
        <ele>92.77</ele>
        <time>2019-11-10T08:57:53Z</time>
      </trkpt>
      <trkpt lat="48.76962" lon="2.28506">
        <ele>93.33</ele>
        <time>2019-11-10T08:58:09Z</time>
      </trkpt>
      <trkpt lat="48.76941" lon="2.28502">
        <ele>94.68</ele>
        <time>2019-11-10T08:58:25Z</time>
      </trkpt>
      <trkpt lat="48.76922" lon="2.28503">
        <ele>96.12</ele>
        <time>2019-11-10T08:58:39Z</time>
      </trkpt>
      <trkpt lat="48.76903" lon="2.28505">
        <ele>96.86</ele>
        <time>2019-11-10T08:58:58Z</time>
      </trkpt>
      <trkpt lat="48.76885" lon="2.28512">
        <ele>92.84</ele>
        <time>2019-11-10T08:59:45Z</time>
      </trkpt>
      <trkpt lat="48.76867" lon="2.2851">
        <ele>93.41</ele>
        <time>2019-11-10T08:59:58Z</time>
      </trkpt>
      <trkpt lat="48.76854" lon="2.2849">
        <ele>94.8</ele>
        <time>2019-11-10T09:00:18Z</time>
      </trkpt>
      <trkpt lat="48.76836" lon="2.28487">
        <ele>93.44</ele>
        <time>2019-11-10T09:00:31Z</time>
      </trkpt>
      <trkpt lat="48.76817" lon="2.28486">
        <ele>91.92</ele>
        <time>2019-11-10T09:00:48Z</time>
      </trkpt>
      <trkpt lat="48.76799" lon="2.28484">
        <ele>91.31</ele>
        <time>2019-11-10T09:01:02Z</time>
      </trkpt>
      <trkpt lat="48.76779" lon="2.28483">
        <ele>91.56</ele>
        <time>2019-11-10T09:01:18Z</time>
      </trkpt>
      <trkpt lat="48.7676" lon="2.28482">
        <ele>93.9</ele>
        <time>2019-11-10T09:01:33Z</time>
      </trkpt>
      <trkpt lat="48.76741" lon="2.28479">
        <ele>95.14</ele>
        <time>2019-11-10T09:01:49Z</time>
      </trkpt>
      <trkpt lat="48.76723" lon="2.28479">
        <ele>96.43</ele>
        <time>2019-11-10T09:02:02Z</time>
      </trkpt>
      <trkpt lat="48.76703" lon="2.28483">
        <ele>97.15</ele>
        <time>2019-11-10T09:02:18Z</time>
      </trkpt>
      <trkpt lat="48.76684" lon="2.28483">
        <ele>96.09</ele>
        <time>2019-11-10T09:02:33Z</time>
      </trkpt>
      <trkpt lat="48.76664" lon="2.2848">
        <ele>95.66</ele>
        <time>2019-11-10T09:02:48Z</time>
      </trkpt>
      <trkpt lat="48.76644" lon="2.28481">
        <ele>95.11</ele>
        <time>2019-11-10T09:03:03Z</time>
      </trkpt>
      <trkpt lat="48.76626" lon="2.28483">
        <ele>94.11</ele>
        <time>2019-11-10T09:03:20Z</time>
      </trkpt>
      <trkpt lat="48.76608" lon="2.28482">
        <ele>93.2</ele>
        <time>2019-11-10T09:03:33Z</time>
      </trkpt>
      <trkpt lat="48.7659" lon="2.28472">
        <ele>93.25</ele>
        <time>2019-11-10T09:04:28Z</time>
      </trkpt>
      <trkpt lat="48.76596" lon="2.28443">
        <ele>92</ele>
        <time>2019-11-10T09:04:42Z</time>
      </trkpt>
      <trkpt lat="48.76593" lon="2.28415">
        <ele>91.94</ele>
        <time>2019-11-10T09:04:54Z</time>
      </trkpt>
      <trkpt lat="48.76592" lon="2.28387">
        <ele>92.63</ele>
        <time>2019-11-10T09:05:03Z</time>
      </trkpt>
      <trkpt lat="48.76596" lon="2.28359">
        <ele>94.11</ele>
        <time>2019-11-10T09:05:22Z</time>
      </trkpt>
      <trkpt lat="48.76594" lon="2.28328">
        <ele>94.79</ele>
        <time>2019-11-10T09:05:36Z</time>
      </trkpt>
      <trkpt lat="48.76597" lon="2.28299">
        <ele>96.35</ele>
        <time>2019-11-10T09:05:52Z</time>
      </trkpt>
      <trkpt lat="48.76598" lon="2.28271">
        <ele>96.69</ele>
        <time>2019-11-10T09:06:11Z</time>
      </trkpt>
      <trkpt lat="48.76599" lon="2.28244">
        <ele>96.32</ele>
        <time>2019-11-10T09:06:23Z</time>
      </trkpt>
      <trkpt lat="48.76602" lon="2.28217">
        <ele>95.31</ele>
        <time>2019-11-10T09:06:40Z</time>
      </trkpt>
      <trkpt lat="48.76604" lon="2.2819">
        <ele>95.59</ele>
        <time>2019-11-10T09:06:53Z</time>
      </trkpt>
      <trkpt lat="48.76605" lon="2.28161">
        <ele>96.03</ele>
        <time>2019-11-10T09:07:05Z</time>
      </trkpt>
      <trkpt lat="48.76612" lon="2.28134">
        <ele>97.61</ele>
        <time>2019-11-10T09:07:23Z</time>
      </trkpt>
      <trkpt lat="48.76606" lon="2.28108">
        <ele>94.51</ele>
        <time>2019-11-10T09:08:34Z</time>
      </trkpt>
      <trkpt lat="48.76602" lon="2.2808">
        <ele>93.54</ele>
        <time>2019-11-10T09:08:53Z</time>
      </trkpt>
      <trkpt lat="48.76599" lon="2.28052">
        <ele>94.21</ele>
        <time>2019-11-10T09:09:04Z</time>
      </trkpt>
      <trkpt lat="48.76592" lon="2.28026">
        <ele>95.78</ele>
        <time>2019-11-10T09:09:30Z</time>
      </trkpt>
      <trkpt lat="48.76593" lon="2.27992">
        <ele>95.96</ele>
        <time>2019-11-10T09:10:04Z</time>
      </trkpt>
      <trkpt lat="48.76584" lon="2.27968">
        <ele>96.01</ele>
        <time>2019-11-10T09:10:14Z</time>
      </trkpt>
      <trkpt lat="48.76566" lon="2.27968">
        <ele>101.81</ele>
        <time>2019-11-10T09:13:43Z</time>
      </trkpt>
      <trkpt lat="48.76581" lon="2.27984">
        <ele>109.29</ele>
        <time>2019-11-10T09:14:10Z</time>
      </trkpt>
      <trkpt lat="48.76568" lon="2.28003">
        <ele>95.24</ele>
        <time>2019-11-10T09:19:34Z</time>
      </trkpt>
      <trkpt lat="48.76549" lon="2.28005">
        <ele>91.35</ele>
        <time>2019-11-10T09:19:55Z</time>
      </trkpt>
      <trkpt lat="48.76533" lon="2.27994">
        <ele>89.8</ele>
        <time>2019-11-10T09:20:11Z</time>
      </trkpt>
      <trkpt lat="48.76514" lon="2.27991">
        <ele>89.83</ele>
        <time>2019-11-10T09:22:20Z</time>
      </trkpt>
      <trkpt lat="48.76497" lon="2.27983">
        <ele>88.76</ele>
        <time>2019-11-10T09:22:39Z</time>
      </trkpt>
      <trkpt lat="48.76478" lon="2.27984">
        <ele>87.62</ele>
        <time>2019-11-10T09:22:56Z</time>
      </trkpt>
      <trkpt lat="48.76463" lon="2.2797">
        <ele>89.03</ele>
        <time>2019-11-10T09:23:13Z</time>
      </trkpt>
      <trkpt lat="48.76458" lon="2.27942">
        <ele>91.26</ele>
        <time>2019-11-10T09:23:27Z</time>
      </trkpt>
      <trkpt lat="48.76457" lon="2.27915">
        <ele>93.29</ele>
        <time>2019-11-10T09:23:36Z</time>
      </trkpt>
      <trkpt lat="48.76459" lon="2.27886">
        <ele>95.3</ele>
        <time>2019-11-10T09:24:00Z</time>
      </trkpt>
      <trkpt lat="48.76457" lon="2.27858">
        <ele>95.1</ele>
        <time>2019-11-10T09:24:46Z</time>
      </trkpt>
      <trkpt lat="48.76453" lon="2.27831">
        <ele>94.54</ele>
        <time>2019-11-10T09:25:02Z</time>
      </trkpt>
      <trkpt lat="48.76442" lon="2.2781">
        <ele>94.64</ele>
        <time>2019-11-10T09:25:16Z</time>
      </trkpt>
      <trkpt lat="48.76434" lon="2.27785">
        <ele>95.22</ele>
        <time>2019-11-10T09:25:27Z</time>
      </trkpt>
      <trkpt lat="48.76427" lon="2.27758">
        <ele>96.27</ele>
        <time>2019-11-10T09:25:40Z</time>
      </trkpt>
      <trkpt lat="48.76423" lon="2.27731">
        <ele>97.86</ele>
        <time>2019-11-10T09:26:00Z</time>
      </trkpt>
      <trkpt lat="48.76412" lon="2.27709">
        <ele>98.71</ele>
        <time>2019-11-10T09:26:08Z</time>
      </trkpt>
      <trkpt lat="48.76401" lon="2.27687">
        <ele>101.84</ele>
        <time>2019-11-10T09:26:30Z</time>
      </trkpt>
      <trkpt lat="48.76394" lon="2.27659">
        <ele>103.12</ele>
        <time>2019-11-10T09:26:42Z</time>
      </trkpt>
      <trkpt lat="48.76381" lon="2.27637">
        <ele>104.74</ele>
        <time>2019-11-10T09:26:54Z</time>
      </trkpt>
      <trkpt lat="48.7637" lon="2.27613">
        <ele>105.52</ele>
        <time>2019-11-10T09:27:05Z</time>
      </trkpt>
      <trkpt lat="48.76374" lon="2.27585">
        <ele>105.06</ele>
        <time>2019-11-10T09:27:23Z</time>
      </trkpt>
      <trkpt lat="48.76369" lon="2.27557">
        <ele>104.47</ele>
        <time>2019-11-10T09:27:40Z</time>
      </trkpt>
      <trkpt lat="48.76369" lon="2.27529">
        <ele>103.92</ele>
        <time>2019-11-10T09:27:53Z</time>
      </trkpt>
      <trkpt lat="48.76369" lon="2.275">
        <ele>103.84</ele>
        <time>2019-11-10T09:28:11Z</time>
      </trkpt>
      <trkpt lat="48.76371" lon="2.27471">
        <ele>104.26</ele>
        <time>2019-11-10T09:28:28Z</time>
      </trkpt>
      <trkpt lat="48.76375" lon="2.27443">
        <ele>105.15</ele>
        <time>2019-11-10T09:29:15Z</time>
      </trkpt>
      <trkpt lat="48.76373" lon="2.27415">
        <ele>106.57</ele>
        <time>2019-11-10T09:29:29Z</time>
      </trkpt>
      <trkpt lat="48.76373" lon="2.27387">
        <ele>108.66</ele>
        <time>2019-11-10T09:29:49Z</time>
      </trkpt>
      <trkpt lat="48.76383" lon="2.27363">
        <ele>109.92</ele>
        <time>2019-11-10T09:30:07Z</time>
      </trkpt>
      <trkpt lat="48.76383" lon="2.27333">
        <ele>111.69</ele>
        <time>2019-11-10T09:30:20Z</time>
      </trkpt>
      <trkpt lat="48.76389" lon="2.27307">
        <ele>112.4</ele>
        <time>2019-11-10T09:30:40Z</time>
      </trkpt>
      <trkpt lat="48.76395" lon="2.2728">
        <ele>111.44</ele>
        <time>2019-11-10T09:31:01Z</time>
      </trkpt>
      <trkpt lat="48.76395" lon="2.27252">
        <ele>110.58</ele>
        <time>2019-11-10T09:31:16Z</time>
      </trkpt>
      <trkpt lat="48.76402" lon="2.27225">
        <ele>110.99</ele>
        <time>2019-11-10T09:31:34Z</time>
      </trkpt>
      <trkpt lat="48.76383" lon="2.27227">
        <ele>110.43</ele>
        <time>2019-11-10T09:32:10Z</time>
      </trkpt>
      <trkpt lat="48.76374" lon="2.27204">
        <ele>112.86</ele>
        <time>2019-11-10T09:32:32Z</time>
      </trkpt>
      <trkpt lat="48.76374" lon="2.27175">
        <ele>113.28</ele>
        <time>2019-11-10T09:32:48Z</time>
      </trkpt>
      <trkpt lat="48.76358" lon="2.27161">
        <ele>110.78</ele>
        <time>2019-11-10T09:33:23Z</time>
      </trkpt>
      <trkpt lat="48.7634" lon="2.27154">
        <ele>109.89</ele>
        <time>2019-11-10T09:33:40Z</time>
      </trkpt>
      <trkpt lat="48.76343" lon="2.27125">
        <ele>111.5</ele>
        <time>2019-11-10T09:33:56Z</time>
      </trkpt>
      <trkpt lat="48.76348" lon="2.27099">
        <ele>113.48</ele>
        <time>2019-11-10T09:34:11Z</time>
      </trkpt>
      <trkpt lat="48.76352" lon="2.27072">
        <ele>115.28</ele>
        <time>2019-11-10T09:34:25Z</time>
      </trkpt>
      <trkpt lat="48.76345" lon="2.27044">
        <ele>117.51</ele>
        <time>2019-11-10T09:34:40Z</time>
      </trkpt>
      <trkpt lat="48.76339" lon="2.27016">
        <ele>120.41</ele>
        <time>2019-11-10T09:35:00Z</time>
      </trkpt>
      <trkpt lat="48.76332" lon="2.26988">
        <ele>120.3</ele>
        <time>2019-11-10T09:35:17Z</time>
      </trkpt>
      <trkpt lat="48.76325" lon="2.26962">
        <ele>120.13</ele>
        <time>2019-11-10T09:35:34Z</time>
      </trkpt>
      <trkpt lat="48.76321" lon="2.26934">
        <ele>119.6</ele>
        <time>2019-11-10T09:35:51Z</time>
      </trkpt>
      <trkpt lat="48.76314" lon="2.26907">
        <ele>120.65</ele>
        <time>2019-11-10T09:36:04Z</time>
      </trkpt>
      <trkpt lat="48.76308" lon="2.2688">
        <ele>122.16</ele>
        <time>2019-11-10T09:36:22Z</time>
      </trkpt>
      <trkpt lat="48.76306" lon="2.26853">
        <ele>123.1</ele>
        <time>2019-11-10T09:36:37Z</time>
      </trkpt>
      <trkpt lat="48.76298" lon="2.26829">
        <ele>124.96</ele>
        <time>2019-11-10T09:37:34Z</time>
      </trkpt>
      <trkpt lat="48.76289" lon="2.26804">
        <ele>125.25</ele>
        <time>2019-11-10T09:38:51Z</time>
      </trkpt>
      <trkpt lat="48.7628" lon="2.26779">
        <ele>124.8</ele>
        <time>2019-11-10T09:39:03Z</time>
      </trkpt>
      <trkpt lat="48.76271" lon="2.26751">
        <ele>125.62</ele>
        <time>2019-11-10T09:39:20Z</time>
      </trkpt>
      <trkpt lat="48.76257" lon="2.26732">
        <ele>125.44</ele>
        <time>2019-11-10T09:39:37Z</time>
      </trkpt>
      <trkpt lat="48.76242" lon="2.26716">
        <ele>126.45</ele>
        <time>2019-11-10T09:39:52Z</time>
      </trkpt>
      <trkpt lat="48.76226" lon="2.26701">
        <ele>126.99</ele>
        <time>2019-11-10T09:40:29Z</time>
      </trkpt>
      <trkpt lat="48.76212" lon="2.26682">
        <ele>127.86</ele>
        <time>2019-11-10T09:40:46Z</time>
      </trkpt>
      <trkpt lat="48.76204" lon="2.26655">
        <ele>130.88</ele>
        <time>2019-11-10T09:41:05Z</time>
      </trkpt>
      <trkpt lat="48.76194" lon="2.26631">
        <ele>133.08</ele>
        <time>2019-11-10T09:41:17Z</time>
      </trkpt>
      <trkpt lat="48.76184" lon="2.26606">
        <ele>137.5</ele>
        <time>2019-11-10T09:41:36Z</time>
      </trkpt>
      <trkpt lat="48.76174" lon="2.2658">
        <ele>140.93</ele>
        <time>2019-11-10T09:41:54Z</time>
      </trkpt>
      <trkpt lat="48.76166" lon="2.26555">
        <ele>143.1</ele>
        <time>2019-11-10T09:42:11Z</time>
      </trkpt>
      <trkpt lat="48.76158" lon="2.26529">
        <ele>144.96</ele>
        <time>2019-11-10T09:42:26Z</time>
      </trkpt>
      <trkpt lat="48.76149" lon="2.26505">
        <ele>145.67</ele>
        <time>2019-11-10T09:42:38Z</time>
      </trkpt>
      <trkpt lat="48.76139" lon="2.26483">
        <ele>146.54</ele>
        <time>2019-11-10T09:42:58Z</time>
      </trkpt>
      <trkpt lat="48.76129" lon="2.2646">
        <ele>145.91</ele>
        <time>2019-11-10T09:43:12Z</time>
      </trkpt>
      <trkpt lat="48.76117" lon="2.26439">
        <ele>147.98</ele>
        <time>2019-11-10T09:43:48Z</time>
      </trkpt>
      <trkpt lat="48.76104" lon="2.26421">
        <ele>148.67</ele>
        <time>2019-11-10T09:44:10Z</time>
      </trkpt>
      <trkpt lat="48.7609" lon="2.26403">
        <ele>149.05</ele>
        <time>2019-11-10T09:44:21Z</time>
      </trkpt>
      <trkpt lat="48.76079" lon="2.26379">
        <ele>149.65</ele>
        <time>2019-11-10T09:44:47Z</time>
      </trkpt>
      <trkpt lat="48.7607" lon="2.26354">
        <ele>149.15</ele>
        <time>2019-11-10T09:45:31Z</time>
      </trkpt>
      <trkpt lat="48.76089" lon="2.26356">
        <ele>148.84</ele>
        <time>2019-11-10T09:46:18Z</time>
      </trkpt>
      <trkpt lat="48.76074" lon="2.26338">
        <ele>147.9</ele>
        <time>2019-11-10T09:49:27Z</time>
      </trkpt>
      <trkpt lat="48.76075" lon="2.26308">
        <ele>146.37</ele>
        <time>2019-11-10T09:50:45Z</time>
      </trkpt>
      <trkpt lat="48.76064" lon="2.26281">
        <ele>147.55</ele>
        <time>2019-11-10T09:51:07Z</time>
      </trkpt>
      <trkpt lat="48.76058" lon="2.26255">
        <ele>152.4</ele>
        <time>2019-11-10T09:52:10Z</time>
      </trkpt>
      <trkpt lat="48.76065" lon="2.26228">
        <ele>152.17</ele>
        <time>2019-11-10T09:52:28Z</time>
      </trkpt>
      <trkpt lat="48.76072" lon="2.26202">
        <ele>152.01</ele>
        <time>2019-11-10T09:52:46Z</time>
      </trkpt>
      <trkpt lat="48.76064" lon="2.26174">
        <ele>150.78</ele>
        <time>2019-11-10T09:53:08Z</time>
      </trkpt>
      <trkpt lat="48.76064" lon="2.26147">
        <ele>151.67</ele>
        <time>2019-11-10T09:53:27Z</time>
      </trkpt>
      <trkpt lat="48.76072" lon="2.26122">
        <ele>153.66</ele>
        <time>2019-11-10T09:53:47Z</time>
      </trkpt>
      <trkpt lat="48.76079" lon="2.26095">
        <ele>156.54</ele>
        <time>2019-11-10T09:54:05Z</time>
      </trkpt>
      <trkpt lat="48.76078" lon="2.26067">
        <ele>159.31</ele>
        <time>2019-11-10T09:54:22Z</time>
      </trkpt>
      <trkpt lat="48.76073" lon="2.26039">
        <ele>161.92</ele>
        <time>2019-11-10T09:54:40Z</time>
      </trkpt>
      <trkpt lat="48.76068" lon="2.26011">
        <ele>160.49</ele>
        <time>2019-11-10T09:56:00Z</time>
      </trkpt>
      <trkpt lat="48.76077" lon="2.25986">
        <ele>160.47</ele>
        <time>2019-11-10T09:56:14Z</time>
      </trkpt>
      <trkpt lat="48.76074" lon="2.25958">
        <ele>162.16</ele>
        <time>2019-11-10T09:56:30Z</time>
      </trkpt>
      <trkpt lat="48.76079" lon="2.25932">
        <ele>163.08</ele>
        <time>2019-11-10T09:58:28Z</time>
      </trkpt>
      <trkpt lat="48.76081" lon="2.25904">
        <ele>161.43</ele>
        <time>2019-11-10T10:00:08Z</time>
      </trkpt>
      <trkpt lat="48.76079" lon="2.25877">
        <ele>163.26</ele>
        <time>2019-11-10T10:00:22Z</time>
      </trkpt>
      <trkpt lat="48.7608" lon="2.25849">
        <ele>165.18</ele>
        <time>2019-11-10T10:00:41Z</time>
      </trkpt>
      <trkpt lat="48.76089" lon="2.25823">
        <ele>165.79</ele>
        <time>2019-11-10T10:00:57Z</time>
      </trkpt>
      <trkpt lat="48.76095" lon="2.25795">
        <ele>166.02</ele>
        <time>2019-11-10T10:01:12Z</time>
      </trkpt>
      <trkpt lat="48.76094" lon="2.25767">
        <ele>166.62</ele>
        <time>2019-11-10T10:01:28Z</time>
      </trkpt>
      <trkpt lat="48.76095" lon="2.25739">
        <ele>167.07</ele>
        <time>2019-11-10T10:01:46Z</time>
      </trkpt>
      <trkpt lat="48.76097" lon="2.2571">
        <ele>167.92</ele>
        <time>2019-11-10T10:02:02Z</time>
      </trkpt>
      <trkpt lat="48.76103" lon="2.25684">
        <ele>168.79</ele>
        <time>2019-11-10T10:02:17Z</time>
      </trkpt>
      <trkpt lat="48.76095" lon="2.25659">
        <ele>168.86</ele>
        <time>2019-11-10T10:02:51Z</time>
      </trkpt>
      <trkpt lat="48.76085" lon="2.25636">
        <ele>169.35</ele>
        <time>2019-11-10T10:03:14Z</time>
      </trkpt>
      <trkpt lat="48.76087" lon="2.25607">
        <ele>169.1</ele>
        <time>2019-11-10T10:03:33Z</time>
      </trkpt>
      <trkpt lat="48.76088" lon="2.2558">
        <ele>169.68</ele>
        <time>2019-11-10T10:03:48Z</time>
      </trkpt>
      <trkpt lat="48.76092" lon="2.25552">
        <ele>171.05</ele>
        <time>2019-11-10T10:04:06Z</time>
      </trkpt>
      <trkpt lat="48.76097" lon="2.25525">
        <ele>171.94</ele>
        <time>2019-11-10T10:04:23Z</time>
      </trkpt>
      <trkpt lat="48.76103" lon="2.25499">
        <ele>171.38</ele>
        <time>2019-11-10T10:04:38Z</time>
      </trkpt>
      <trkpt lat="48.76109" lon="2.25472">
        <ele>169.48</ele>
        <time>2019-11-10T10:04:54Z</time>
      </trkpt>
      <trkpt lat="48.76111" lon="2.25444">
        <ele>169.21</ele>
        <time>2019-11-10T10:05:10Z</time>
      </trkpt>
      <trkpt lat="48.76126" lon="2.25426">
        <ele>169.92</ele>
        <time>2019-11-10T10:07:08Z</time>
      </trkpt>
      <trkpt lat="48.7614" lon="2.25409">
        <ele>171.16</ele>
        <time>2019-11-10T10:07:34Z</time>
      </trkpt>
      <trkpt lat="48.76153" lon="2.25386">
        <ele>169.3</ele>
        <time>2019-11-10T10:07:50Z</time>
      </trkpt>
      <trkpt lat="48.76169" lon="2.25371">
        <ele>167.57</ele>
        <time>2019-11-10T10:08:05Z</time>
      </trkpt>
      <trkpt lat="48.76183" lon="2.25352">
        <ele>166.76</ele>
        <time>2019-11-10T10:08:22Z</time>
      </trkpt>
      <trkpt lat="48.76198" lon="2.25334">
        <ele>165</ele>
        <time>2019-11-10T10:08:38Z</time>
      </trkpt>
      <trkpt lat="48.76212" lon="2.25312">
        <ele>163.39</ele>
        <time>2019-11-10T10:09:10Z</time>
      </trkpt>
      <trkpt lat="48.7622" lon="2.25287">
        <ele>163.32</ele>
        <time>2019-11-10T10:09:52Z</time>
      </trkpt>
      <trkpt lat="48.76217" lon="2.2526">
        <ele>162.34</ele>
        <time>2019-11-10T10:10:13Z</time>
      </trkpt>
      <trkpt lat="48.7622" lon="2.25231">
        <ele>162.79</ele>
        <time>2019-11-10T10:10:42Z</time>
      </trkpt>
      <trkpt lat="48.76226" lon="2.25205">
        <ele>163.74</ele>
        <time>2019-11-10T10:11:02Z</time>
      </trkpt>
      <trkpt lat="48.76241" lon="2.25188">
        <ele>163.72</ele>
        <time>2019-11-10T10:11:18Z</time>
      </trkpt>
      <trkpt lat="48.76252" lon="2.25166">
        <ele>166.34</ele>
        <time>2019-11-10T10:11:50Z</time>
      </trkpt>
      <trkpt lat="48.76263" lon="2.25144">
        <ele>167.04</ele>
        <time>2019-11-10T10:12:15Z</time>
      </trkpt>
      <trkpt lat="48.76284" lon="2.25128">
        <ele>167.25</ele>
        <time>2019-11-10T10:12:26Z</time>
      </trkpt>
      <trkpt lat="48.76285" lon="2.25097">
        <ele>171.24</ele>
        <time>2019-11-10T10:13:13Z</time>
      </trkpt>
      <trkpt lat="48.76293" lon="2.25071">
        <ele>172.59</ele>
        <time>2019-11-10T10:13:27Z</time>
      </trkpt>
      <trkpt lat="48.76297" lon="2.25044">
        <ele>172.3</ele>
        <time>2019-11-10T10:13:46Z</time>
      </trkpt>
      <trkpt lat="48.76315" lon="2.25046">
        <ele>170.11</ele>
        <time>2019-11-10T10:14:13Z</time>
      </trkpt>
      <trkpt lat="48.76334" lon="2.25041">
        <ele>172.23</ele>
        <time>2019-11-10T10:14:29Z</time>
      </trkpt>
      <trkpt lat="48.76349" lon="2.25023">
        <ele>172.53</ele>
        <time>2019-11-10T10:14:51Z</time>
      </trkpt>
      <trkpt lat="48.76349" lon="2.24995">
        <ele>170.24</ele>
        <time>2019-11-10T10:15:06Z</time>
      </trkpt>
      <trkpt lat="48.7635" lon="2.24967">
        <ele>167.98</ele>
        <time>2019-11-10T10:15:22Z</time>
      </trkpt>
      <trkpt lat="48.76346" lon="2.2494">
        <ele>166.32</ele>
        <time>2019-11-10T10:15:38Z</time>
      </trkpt>
      <trkpt lat="48.76351" lon="2.24911">
        <ele>164.5</ele>
        <time>2019-11-10T10:15:58Z</time>
      </trkpt>
      <trkpt lat="48.76363" lon="2.2489">
        <ele>164.77</ele>
        <time>2019-11-10T10:16:13Z</time>
      </trkpt>
      <trkpt lat="48.76359" lon="2.24863">
        <ele>165.75</ele>
        <time>2019-11-10T10:16:27Z</time>
      </trkpt>
      <trkpt lat="48.76354" lon="2.24837">
        <ele>169.34</ele>
        <time>2019-11-10T10:17:55Z</time>
      </trkpt>
      <trkpt lat="48.76343" lon="2.24815">
        <ele>171.35</ele>
        <time>2019-11-10T10:18:10Z</time>
      </trkpt>
      <trkpt lat="48.76334" lon="2.24791">
        <ele>171.75</ele>
        <time>2019-11-10T10:18:31Z</time>
      </trkpt>
      <trkpt lat="48.76324" lon="2.24768">
        <ele>171.33</ele>
        <time>2019-11-10T10:18:50Z</time>
      </trkpt>
      <trkpt lat="48.76317" lon="2.24741">
        <ele>170.56</ele>
        <time>2019-11-10T10:19:10Z</time>
      </trkpt>
      <trkpt lat="48.76314" lon="2.24715">
        <ele>170.15</ele>
        <time>2019-11-10T10:19:27Z</time>
      </trkpt>
      <trkpt lat="48.76306" lon="2.2469">
        <ele>169.35</ele>
        <time>2019-11-10T10:19:44Z</time>
      </trkpt>
      <trkpt lat="48.76299" lon="2.24662">
        <ele>170.32</ele>
        <time>2019-11-10T10:20:01Z</time>
      </trkpt>
      <trkpt lat="48.76293" lon="2.24634">
        <ele>171.54</ele>
        <time>2019-11-10T10:20:15Z</time>
      </trkpt>
      <trkpt lat="48.76287" lon="2.24608">
        <ele>173.63</ele>
        <time>2019-11-10T10:20:30Z</time>
      </trkpt>
      <trkpt lat="48.76278" lon="2.24582">
        <ele>176.55</ele>
        <time>2019-11-10T10:20:45Z</time>
      </trkpt>
      <trkpt lat="48.76276" lon="2.24554">
        <ele>179.02</ele>
        <time>2019-11-10T10:20:57Z</time>
      </trkpt>
      <trkpt lat="48.76269" lon="2.24529">
        <ele>179.02</ele>
        <time>2019-11-10T10:21:16Z</time>
      </trkpt>
      <trkpt lat="48.76267" lon="2.24501">
        <ele>177.97</ele>
        <time>2019-11-10T10:22:09Z</time>
      </trkpt>
      <trkpt lat="48.76276" lon="2.24477">
        <ele>176.58</ele>
        <time>2019-11-10T10:22:23Z</time>
      </trkpt>
      <trkpt lat="48.76286" lon="2.24452">
        <ele>176.09</ele>
        <time>2019-11-10T10:22:43Z</time>
      </trkpt>
      <trkpt lat="48.76295" lon="2.24428">
        <ele>174.93</ele>
        <time>2019-11-10T10:22:55Z</time>
      </trkpt>
      <trkpt lat="48.76296" lon="2.24399">
        <ele>174.58</ele>
        <time>2019-11-10T10:23:12Z</time>
      </trkpt>
      <trkpt lat="48.76305" lon="2.24371">
        <ele>175.01</ele>
        <time>2019-11-10T10:23:29Z</time>
      </trkpt>
      <trkpt lat="48.76313" lon="2.24346">
        <ele>174.73</ele>
        <time>2019-11-10T10:23:43Z</time>
      </trkpt>
      <trkpt lat="48.76322" lon="2.24321">
        <ele>174.09</ele>
        <time>2019-11-10T10:23:57Z</time>
      </trkpt>
      <trkpt lat="48.76323" lon="2.24292">
        <ele>173.58</ele>
        <time>2019-11-10T10:24:15Z</time>
      </trkpt>
      <trkpt lat="48.76331" lon="2.24267">
        <ele>171.61</ele>
        <time>2019-11-10T10:24:28Z</time>
      </trkpt>
      <trkpt lat="48.7634" lon="2.24242">
        <ele>169.15</ele>
        <time>2019-11-10T10:24:48Z</time>
      </trkpt>
      <trkpt lat="48.7635" lon="2.24219">
        <ele>169.06</ele>
        <time>2019-11-10T10:24:58Z</time>
      </trkpt>
      <trkpt lat="48.76352" lon="2.24191">
        <ele>170.98</ele>
        <time>2019-11-10T10:25:12Z</time>
      </trkpt>
      <trkpt lat="48.7636" lon="2.24165">
        <ele>173.1</ele>
        <time>2019-11-10T10:25:31Z</time>
      </trkpt>
      <trkpt lat="48.76367" lon="2.24138">
        <ele>174.67</ele>
        <time>2019-11-10T10:25:47Z</time>
      </trkpt>
      <trkpt lat="48.76372" lon="2.24112">
        <ele>174.96</ele>
        <time>2019-11-10T10:25:58Z</time>
      </trkpt>
      <trkpt lat="48.7638" lon="2.24086">
        <ele>174.64</ele>
        <time>2019-11-10T10:26:12Z</time>
      </trkpt>
      <trkpt lat="48.76365" lon="2.24069">
        <ele>178.17</ele>
        <time>2019-11-10T10:27:34Z</time>
      </trkpt>
      <trkpt lat="48.76384" lon="2.24074">
        <ele>182.43</ele>
        <time>2019-11-10T10:29:02Z</time>
      </trkpt>
      <trkpt lat="48.76402" lon="2.2407">
        <ele>182.81</ele>
        <time>2019-11-10T10:29:10Z</time>
      </trkpt>
      <trkpt lat="48.76413" lon="2.24048">
        <ele>182.73</ele>
        <time>2019-11-10T10:29:28Z</time>
      </trkpt>
      <trkpt lat="48.7643" lon="2.24032">
        <ele>183.17</ele>
        <time>2019-11-10T10:29:41Z</time>
      </trkpt>
      <trkpt lat="48.76448" lon="2.24021">
        <ele>182.73</ele>
        <time>2019-11-10T10:29:52Z</time>
      </trkpt>
      <trkpt lat="48.76464" lon="2.24008">
        <ele>182.15</ele>
        <time>2019-11-10T10:30:17Z</time>
      </trkpt>
      <trkpt lat="48.76483" lon="2.2399">
        <ele>181.82</ele>
        <time>2019-11-10T10:30:42Z</time>
      </trkpt>
      <trkpt lat="48.76501" lon="2.23978">
        <ele>182.34</ele>
        <time>2019-11-10T10:30:49Z</time>
      </trkpt>
      <trkpt lat="48.76517" lon="2.23965">
        <ele>182.56</ele>
        <time>2019-11-10T10:31:06Z</time>
      </trkpt>
      <trkpt lat="48.76533" lon="2.2395">
        <ele>180.71</ele>
        <time>2019-11-10T10:31:23Z</time>
      </trkpt>
      <trkpt lat="48.7655" lon="2.23939">
        <ele>178.82</ele>
        <time>2019-11-10T10:31:37Z</time>
      </trkpt>
      <trkpt lat="48.76566" lon="2.23925">
        <ele>178</ele>
        <time>2019-11-10T10:31:50Z</time>
      </trkpt>
      <trkpt lat="48.76583" lon="2.23912">
        <ele>176.81</ele>
        <time>2019-11-10T10:32:07Z</time>
      </trkpt>
      <trkpt lat="48.76601" lon="2.23901">
        <ele>175.5</ele>
        <time>2019-11-10T10:32:20Z</time>
      </trkpt>
      <trkpt lat="48.76618" lon="2.23887">
        <ele>174.9</ele>
        <time>2019-11-10T10:32:35Z</time>
      </trkpt>
      <trkpt lat="48.76633" lon="2.2387">
        <ele>174.11</ele>
        <time>2019-11-10T10:32:54Z</time>
      </trkpt>
      <trkpt lat="48.76647" lon="2.23849">
        <ele>167.9</ele>
        <time>2019-11-10T10:35:41Z</time>
      </trkpt>
      <trkpt lat="48.76635" lon="2.23828">
        <ele>167.32</ele>
        <time>2019-11-10T10:36:03Z</time>
      </trkpt>
      <trkpt lat="48.76631" lon="2.23801">
        <ele>168.98</ele>
        <time>2019-11-10T10:36:20Z</time>
      </trkpt>
      <trkpt lat="48.76635" lon="2.23773">
        <ele>173.72</ele>
        <time>2019-11-10T10:36:37Z</time>
      </trkpt>
      <trkpt lat="48.76641" lon="2.23747">
        <ele>177.85</ele>
        <time>2019-11-10T10:36:51Z</time>
      </trkpt>
      <trkpt lat="48.76648" lon="2.23721">
        <ele>181.89</ele>
        <time>2019-11-10T10:37:06Z</time>
      </trkpt>
      <trkpt lat="48.76659" lon="2.23699">
        <ele>183.45</ele>
        <time>2019-11-10T10:37:23Z</time>
      </trkpt>
      <trkpt lat="48.76676" lon="2.23687">
        <ele>181.56</ele>
        <time>2019-11-10T10:37:39Z</time>
      </trkpt>
      <trkpt lat="48.76693" lon="2.23678">
        <ele>178.92</ele>
        <time>2019-11-10T10:37:50Z</time>
      </trkpt>
      <trkpt lat="48.76711" lon="2.23667">
        <ele>177.1</ele>
        <time>2019-11-10T10:38:06Z</time>
      </trkpt>
      <trkpt lat="48.76721" lon="2.23644">
        <ele>175.12</ele>
        <time>2019-11-10T10:38:22Z</time>
      </trkpt>
      <trkpt lat="48.76733" lon="2.23622">
        <ele>174.19</ele>
        <time>2019-11-10T10:38:33Z</time>
      </trkpt>
      <trkpt lat="48.76745" lon="2.23598">
        <ele>175.67</ele>
        <time>2019-11-10T10:38:45Z</time>
      </trkpt>
      <trkpt lat="48.76749" lon="2.23571">
        <ele>178.04</ele>
        <time>2019-11-10T10:39:02Z</time>
      </trkpt>
      <trkpt lat="48.76753" lon="2.23544">
        <ele>176.09</ele>
        <time>2019-11-10T10:39:18Z</time>
      </trkpt>
      <trkpt lat="48.76756" lon="2.23517">
        <ele>173.78</ele>
        <time>2019-11-10T10:39:33Z</time>
      </trkpt>
      <trkpt lat="48.76751" lon="2.2349">
        <ele>170.48</ele>
        <time>2019-11-10T10:39:50Z</time>
      </trkpt>
      <trkpt lat="48.76732" lon="2.23489">
        <ele>165.14</ele>
        <time>2019-11-10T10:40:05Z</time>
      </trkpt>
      <trkpt lat="48.76714" lon="2.23498">
        <ele>160.24</ele>
        <time>2019-11-10T10:40:20Z</time>
      </trkpt>
      <trkpt lat="48.76696" lon="2.235">
        <ele>153.6</ele>
        <time>2019-11-10T10:40:37Z</time>
      </trkpt>
      <trkpt lat="48.76684" lon="2.2348">
        <ele>148.9</ele>
        <time>2019-11-10T10:40:52Z</time>
      </trkpt>
      <trkpt lat="48.7669" lon="2.23454">
        <ele>147.04</ele>
        <time>2019-11-10T10:41:22Z</time>
      </trkpt>
      <trkpt lat="48.76701" lon="2.23431">
        <ele>148.02</ele>
        <time>2019-11-10T10:41:41Z</time>
      </trkpt>
      <trkpt lat="48.767" lon="2.23402">
        <ele>146.7</ele>
        <time>2019-11-10T10:42:00Z</time>
      </trkpt>
      <trkpt lat="48.76691" lon="2.23378">
        <ele>145.42</ele>
        <time>2019-11-10T10:42:14Z</time>
      </trkpt>
      <trkpt lat="48.76675" lon="2.23363">
        <ele>141.24</ele>
        <time>2019-11-10T10:42:30Z</time>
      </trkpt>
      <trkpt lat="48.76659" lon="2.23351">
        <ele>137.41</ele>
        <time>2019-11-10T10:42:47Z</time>
      </trkpt>
      <trkpt lat="48.76642" lon="2.23339">
        <ele>133.47</ele>
        <time>2019-11-10T10:43:06Z</time>
      </trkpt>
      <trkpt lat="48.76624" lon="2.23326">
        <ele>130.45</ele>
        <time>2019-11-10T10:43:21Z</time>
      </trkpt>
      <trkpt lat="48.76607" lon="2.23315">
        <ele>128.19</ele>
        <time>2019-11-10T10:43:37Z</time>
      </trkpt>
      <trkpt lat="48.76591" lon="2.23301">
        <ele>126.78</ele>
        <time>2019-11-10T10:43:56Z</time>
      </trkpt>
      <trkpt lat="48.76595" lon="2.23273">
        <ele>123.14</ele>
        <time>2019-11-10T10:44:57Z</time>
      </trkpt>
      <trkpt lat="48.76603" lon="2.23248">
        <ele>118.08</ele>
        <time>2019-11-10T10:45:36Z</time>
      </trkpt>
      <trkpt lat="48.7661" lon="2.23221">
        <ele>115.26</ele>
        <time>2019-11-10T10:45:58Z</time>
      </trkpt>
      <trkpt lat="48.76619" lon="2.23197">
        <ele>116.54</ele>
        <time>2019-11-10T10:46:12Z</time>
      </trkpt>
      <trkpt lat="48.76622" lon="2.2317">
        <ele>118.29</ele>
        <time>2019-11-10T10:46:28Z</time>
      </trkpt>
      <trkpt lat="48.76627" lon="2.23143">
        <ele>116.94</ele>
        <time>2019-11-10T10:46:49Z</time>
      </trkpt>
      <trkpt lat="48.76637" lon="2.23119">
        <ele>113.55</ele>
        <time>2019-11-10T10:47:20Z</time>
      </trkpt>
      <trkpt lat="48.76644" lon="2.23093">
        <ele>112.57</ele>
        <time>2019-11-10T10:47:39Z</time>
      </trkpt>
      <trkpt lat="48.7665" lon="2.23066">
        <ele>111.85</ele>
        <time>2019-11-10T10:47:55Z</time>
      </trkpt>
      <trkpt lat="48.76652" lon="2.23038">
        <ele>111.76</ele>
        <time>2019-11-10T10:48:10Z</time>
      </trkpt>
      <trkpt lat="48.76653" lon="2.23011">
        <ele>112.78</ele>
        <time>2019-11-10T10:48:25Z</time>
      </trkpt>
      <trkpt lat="48.76653" lon="2.22983">
        <ele>108.91</ele>
        <time>2019-11-10T10:49:12Z</time>
      </trkpt>
      <trkpt lat="48.76649" lon="2.22955">
        <ele>107.76</ele>
        <time>2019-11-10T10:49:25Z</time>
      </trkpt>
      <trkpt lat="48.76635" lon="2.22934">
        <ele>107.28</ele>
        <time>2019-11-10T10:49:41Z</time>
      </trkpt>
      <trkpt lat="48.7662" lon="2.22919">
        <ele>107.89</ele>
        <time>2019-11-10T10:49:57Z</time>
      </trkpt>
      <trkpt lat="48.76605" lon="2.22902">
        <ele>108.78</ele>
        <time>2019-11-10T10:50:12Z</time>
      </trkpt>
      <trkpt lat="48.76591" lon="2.22885">
        <ele>109.56</ele>
        <time>2019-11-10T10:50:24Z</time>
      </trkpt>
      <trkpt lat="48.76575" lon="2.22869">
        <ele>110.55</ele>
        <time>2019-11-10T10:50:39Z</time>
      </trkpt>
      <trkpt lat="48.7656" lon="2.22853">
        <ele>111.07</ele>
        <time>2019-11-10T10:50:54Z</time>
      </trkpt>
      <trkpt lat="48.76543" lon="2.22841">
        <ele>110.75</ele>
        <time>2019-11-10T10:51:11Z</time>
      </trkpt>
      <trkpt lat="48.76528" lon="2.22824">
        <ele>109.78</ele>
        <time>2019-11-10T10:51:25Z</time>
      </trkpt>
      <trkpt lat="48.76513" lon="2.22807">
        <ele>108.92</ele>
        <time>2019-11-10T10:51:39Z</time>
      </trkpt>
      <trkpt lat="48.76498" lon="2.2279">
        <ele>109.45</ele>
        <time>2019-11-10T10:51:52Z</time>
      </trkpt>
      <trkpt lat="48.76483" lon="2.22773">
        <ele>109.73</ele>
        <time>2019-11-10T10:52:08Z</time>
      </trkpt>
      <trkpt lat="48.76468" lon="2.22758">
        <ele>109.77</ele>
        <time>2019-11-10T10:52:24Z</time>
      </trkpt>
      <trkpt lat="48.76452" lon="2.2274">
        <ele>108.76</ele>
        <time>2019-11-10T10:52:38Z</time>
      </trkpt>
      <trkpt lat="48.76435" lon="2.22726">
        <ele>105.64</ele>
        <time>2019-11-10T10:52:57Z</time>
      </trkpt>
      <trkpt lat="48.76423" lon="2.22705">
        <ele>103.72</ele>
        <time>2019-11-10T10:53:09Z</time>
      </trkpt>
      <trkpt lat="48.76408" lon="2.2269">
        <ele>105.78</ele>
        <time>2019-11-10T10:53:27Z</time>
      </trkpt>
      <trkpt lat="48.76393" lon="2.22671">
        <ele>106.91</ele>
        <time>2019-11-10T10:53:40Z</time>
      </trkpt>
      <trkpt lat="48.76377" lon="2.22655">
        <ele>108.37</ele>
        <time>2019-11-10T10:53:57Z</time>
      </trkpt>
      <trkpt lat="48.76361" lon="2.2264">
        <ele>107.36</ele>
        <time>2019-11-10T10:54:20Z</time>
      </trkpt>
      <trkpt lat="48.76345" lon="2.2262">
        <ele>107.82</ele>
        <time>2019-11-10T10:54:39Z</time>
      </trkpt>
      <trkpt lat="48.76331" lon="2.226">
        <ele>108.29</ele>
        <time>2019-11-10T10:55:03Z</time>
      </trkpt>
      <trkpt lat="48.7632" lon="2.22577">
        <ele>107.89</ele>
        <time>2019-11-10T10:55:20Z</time>
      </trkpt>
      <trkpt lat="48.76309" lon="2.22556">
        <ele>106.92</ele>
        <time>2019-11-10T10:55:35Z</time>
      </trkpt>
      <trkpt lat="48.76301" lon="2.22531">
        <ele>105.29</ele>
        <time>2019-11-10T10:55:50Z</time>
      </trkpt>
      <trkpt lat="48.76289" lon="2.2251">
        <ele>103.8</ele>
        <time>2019-11-10T10:56:08Z</time>
      </trkpt>
      <trkpt lat="48.76275" lon="2.22489">
        <ele>105.07</ele>
        <time>2019-11-10T10:59:30Z</time>
      </trkpt>
      <trkpt lat="48.76257" lon="2.22481">
        <ele>103.96</ele>
        <time>2019-11-10T10:59:46Z</time>
      </trkpt>
      <trkpt lat="48.76242" lon="2.22466">
        <ele>102.65</ele>
        <time>2019-11-10T11:00:00Z</time>
      </trkpt>
      <trkpt lat="48.76226" lon="2.22451">
        <ele>101.95</ele>
        <time>2019-11-10T11:00:16Z</time>
      </trkpt>
      <trkpt lat="48.76209" lon="2.22434">
        <ele>101.67</ele>
        <time>2019-11-10T11:00:31Z</time>
      </trkpt>
      <trkpt lat="48.76197" lon="2.22412">
        <ele>101.86</ele>
        <time>2019-11-10T11:00:45Z</time>
      </trkpt>
      <trkpt lat="48.76184" lon="2.22391">
        <ele>102.18</ele>
        <time>2019-11-10T11:01:01Z</time>
      </trkpt>
      <trkpt lat="48.76174" lon="2.22367">
        <ele>101.8</ele>
        <time>2019-11-10T11:01:18Z</time>
      </trkpt>
      <trkpt lat="48.76168" lon="2.2234">
        <ele>100.84</ele>
        <time>2019-11-10T11:01:32Z</time>
      </trkpt>
      <trkpt lat="48.76155" lon="2.22321">
        <ele>100.87</ele>
        <time>2019-11-10T11:02:03Z</time>
      </trkpt>
      <trkpt lat="48.76173" lon="2.22325">
        <ele>103.29</ele>
        <time>2019-11-10T11:02:41Z</time>
      </trkpt>
      <trkpt lat="48.76183" lon="2.22301">
        <ele>105.08</ele>
        <time>2019-11-10T11:02:59Z</time>
      </trkpt>
      <trkpt lat="48.76194" lon="2.22278">
        <ele>105.58</ele>
        <time>2019-11-10T11:03:16Z</time>
      </trkpt>
      <trkpt lat="48.76201" lon="2.22252">
        <ele>106.83</ele>
        <time>2019-11-10T11:03:38Z</time>
      </trkpt>
      <trkpt lat="48.76212" lon="2.2223">
        <ele>107.37</ele>
        <time>2019-11-10T11:03:51Z</time>
      </trkpt>
      <trkpt lat="48.7622" lon="2.22205">
        <ele>107.42</ele>
        <time>2019-11-10T11:04:09Z</time>
      </trkpt>
      <trkpt lat="48.76228" lon="2.2218">
        <ele>108.09</ele>
        <time>2019-11-10T11:04:31Z</time>
      </trkpt>
      <trkpt lat="48.7624" lon="2.2216">
        <ele>112</ele>
        <time>2019-11-10T11:04:50Z</time>
      </trkpt>
      <trkpt lat="48.76252" lon="2.22138">
        <ele>116.41</ele>
        <time>2019-11-10T11:05:06Z</time>
      </trkpt>
      <trkpt lat="48.76263" lon="2.22116">
        <ele>119.44</ele>
        <time>2019-11-10T11:05:24Z</time>
      </trkpt>
      <trkpt lat="48.76271" lon="2.22091">
        <ele>121.85</ele>
        <time>2019-11-10T11:05:45Z</time>
      </trkpt>
      <trkpt lat="48.76279" lon="2.22063">
        <ele>122.39</ele>
        <time>2019-11-10T11:06:09Z</time>
      </trkpt>
      <trkpt lat="48.76287" lon="2.22036">
        <ele>125.26</ele>
        <time>2019-11-10T11:06:29Z</time>
      </trkpt>
      <trkpt lat="48.76295" lon="2.2201">
        <ele>129.01</ele>
        <time>2019-11-10T11:06:50Z</time>
      </trkpt>
      <trkpt lat="48.76305" lon="2.21987">
        <ele>129.89</ele>
        <time>2019-11-10T11:07:03Z</time>
      </trkpt>
      <trkpt lat="48.7631" lon="2.21959">
        <ele>133.06</ele>
        <time>2019-11-10T11:07:31Z</time>
      </trkpt>
      <trkpt lat="48.7632" lon="2.21931">
        <ele>137.29</ele>
        <time>2019-11-10T11:07:51Z</time>
      </trkpt>
      <trkpt lat="48.76331" lon="2.21909">
        <ele>141.11</ele>
        <time>2019-11-10T11:08:12Z</time>
      </trkpt>
      <trkpt lat="48.76339" lon="2.21883">
        <ele>142.56</ele>
        <time>2019-11-10T11:08:35Z</time>
      </trkpt>
      <trkpt lat="48.76342" lon="2.21856">
        <ele>144.41</ele>
        <time>2019-11-10T11:08:58Z</time>
      </trkpt>
      <trkpt lat="48.76351" lon="2.21831">
        <ele>145.5</ele>
        <time>2019-11-10T11:09:16Z</time>
      </trkpt>
      <trkpt lat="48.76357" lon="2.21806">
        <ele>152.54</ele>
        <time>2019-11-10T11:11:13Z</time>
      </trkpt>
      <trkpt lat="48.76346" lon="2.21782">
        <ele>154.34</ele>
        <time>2019-11-10T11:11:35Z</time>
      </trkpt>
      <trkpt lat="48.76332" lon="2.21765">
        <ele>158.64</ele>
        <time>2019-11-10T11:11:51Z</time>
      </trkpt>
      <trkpt lat="48.76318" lon="2.21749">
        <ele>160.8</ele>
        <time>2019-11-10T11:12:12Z</time>
      </trkpt>
      <trkpt lat="48.763" lon="2.21741">
        <ele>162.5</ele>
        <time>2019-11-10T11:12:31Z</time>
      </trkpt>
      <trkpt lat="48.76282" lon="2.21745">
        <ele>163.43</ele>
        <time>2019-11-10T11:12:44Z</time>
      </trkpt>
      <trkpt lat="48.76263" lon="2.21743">
        <ele>163.68</ele>
        <time>2019-11-10T11:13:00Z</time>
      </trkpt>
      <trkpt lat="48.76245" lon="2.21744">
        <ele>163.22</ele>
        <time>2019-11-10T11:13:17Z</time>
      </trkpt>
      <trkpt lat="48.76229" lon="2.21759">
        <ele>167.42</ele>
        <time>2019-11-10T11:15:09Z</time>
      </trkpt>
      <trkpt lat="48.76214" lon="2.21745">
        <ele>175.93</ele>
        <time>2019-11-10T11:21:52Z</time>
      </trkpt>
      <trkpt lat="48.76196" lon="2.21737">
        <ele>176.97</ele>
        <time>2019-11-10T11:22:10Z</time>
      </trkpt>
      <trkpt lat="48.76179" lon="2.21726">
        <ele>177.3</ele>
        <time>2019-11-10T11:22:23Z</time>
      </trkpt>
      <trkpt lat="48.76166" lon="2.21706">
        <ele>178.99</ele>
        <time>2019-11-10T11:22:42Z</time>
      </trkpt>
      <trkpt lat="48.76155" lon="2.21683">
        <ele>178.4</ele>
        <time>2019-11-10T11:22:57Z</time>
      </trkpt>
      <trkpt lat="48.76152" lon="2.21655">
        <ele>176.64</ele>
        <time>2019-11-10T11:23:18Z</time>
      </trkpt>
      <trkpt lat="48.76152" lon="2.21627">
        <ele>175.31</ele>
        <time>2019-11-10T11:23:34Z</time>
      </trkpt>
      <trkpt lat="48.76144" lon="2.21603">
        <ele>175.33</ele>
        <time>2019-11-10T11:23:55Z</time>
      </trkpt>
      <trkpt lat="48.76144" lon="2.21575">
        <ele>175.48</ele>
        <time>2019-11-10T11:24:13Z</time>
      </trkpt>
      <trkpt lat="48.76145" lon="2.21547">
        <ele>175.02</ele>
        <time>2019-11-10T11:24:32Z</time>
      </trkpt>
      <trkpt lat="48.76141" lon="2.21518">
        <ele>175.52</ele>
        <time>2019-11-10T11:24:48Z</time>
      </trkpt>
      <trkpt lat="48.76127" lon="2.215">
        <ele>177.08</ele>
        <time>2019-11-10T11:25:14Z</time>
      </trkpt>
      <trkpt lat="48.76111" lon="2.21487">
        <ele>179.75</ele>
        <time>2019-11-10T11:26:02Z</time>
      </trkpt>
      <trkpt lat="48.76098" lon="2.21467">
        <ele>180.7</ele>
        <time>2019-11-10T11:26:18Z</time>
      </trkpt>
      <trkpt lat="48.76084" lon="2.21448">
        <ele>180.82</ele>
        <time>2019-11-10T11:26:35Z</time>
      </trkpt>
      <trkpt lat="48.76073" lon="2.21426">
        <ele>180.01</ele>
        <time>2019-11-10T11:26:50Z</time>
      </trkpt>
      <trkpt lat="48.76066" lon="2.214">
        <ele>179.18</ele>
        <time>2019-11-10T11:27:10Z</time>
      </trkpt>
      <trkpt lat="48.76071" lon="2.21373">
        <ele>178.41</ele>
        <time>2019-11-10T11:27:28Z</time>
      </trkpt>
      <trkpt lat="48.7608" lon="2.21347">
        <ele>175.76</ele>
        <time>2019-11-10T11:27:42Z</time>
      </trkpt>
      <trkpt lat="48.76085" lon="2.2132">
        <ele>174.27</ele>
        <time>2019-11-10T11:27:58Z</time>
      </trkpt>
      <trkpt lat="48.76083" lon="2.21293">
        <ele>174.46</ele>
        <time>2019-11-10T11:28:21Z</time>
      </trkpt>
      <trkpt lat="48.76065" lon="2.21293">
        <ele>172.61</ele>
        <time>2019-11-10T11:28:39Z</time>
      </trkpt>
      <trkpt lat="48.76047" lon="2.21302">
        <ele>171.51</ele>
        <time>2019-11-10T11:28:55Z</time>
      </trkpt>
      <trkpt lat="48.76031" lon="2.21315">
        <ele>171</ele>
        <time>2019-11-10T11:29:06Z</time>
      </trkpt>
      <trkpt lat="48.76017" lon="2.21332">
        <ele>170.77</ele>
        <time>2019-11-10T11:29:22Z</time>
      </trkpt>
      <trkpt lat="48.76009" lon="2.21357">
        <ele>170.22</ele>
        <time>2019-11-10T11:29:36Z</time>
      </trkpt>
      <trkpt lat="48.75994" lon="2.21378">
        <ele>169.6</ele>
        <time>2019-11-10T11:29:51Z</time>
      </trkpt>
      <trkpt lat="48.7598" lon="2.21396">
        <ele>169.39</ele>
        <time>2019-11-10T11:30:03Z</time>
      </trkpt>
      <trkpt lat="48.75972" lon="2.21421">
        <ele>169.83</ele>
        <time>2019-11-10T11:30:21Z</time>
      </trkpt>
      <trkpt lat="48.75956" lon="2.21437">
        <ele>169.58</ele>
        <time>2019-11-10T11:30:37Z</time>
      </trkpt>
      <trkpt lat="48.75942" lon="2.21453">
        <ele>168.22</ele>
        <time>2019-11-10T11:31:08Z</time>
      </trkpt>
      <trkpt lat="48.75928" lon="2.21473">
        <ele>168.76</ele>
        <time>2019-11-10T11:31:28Z</time>
      </trkpt>
      <trkpt lat="48.7591" lon="2.21483">
        <ele>167.55</ele>
        <time>2019-11-10T11:31:44Z</time>
      </trkpt>
      <trkpt lat="48.75892" lon="2.2148">
        <ele>166.47</ele>
        <time>2019-11-10T11:32:00Z</time>
      </trkpt>
      <trkpt lat="48.75876" lon="2.21464">
        <ele>165.78</ele>
        <time>2019-11-10T11:32:19Z</time>
      </trkpt>
      <trkpt lat="48.75879" lon="2.21434">
        <ele>165.36</ele>
        <time>2019-11-10T11:32:37Z</time>
      </trkpt>
      <trkpt lat="48.75887" lon="2.21408">
        <ele>166.92</ele>
        <time>2019-11-10T11:32:57Z</time>
      </trkpt>
      <trkpt lat="48.75884" lon="2.21379">
        <ele>168.54</ele>
        <time>2019-11-10T11:33:13Z</time>
      </trkpt>
      <trkpt lat="48.75875" lon="2.21404">
        <ele>166.73</ele>
        <time>2019-11-10T11:34:18Z</time>
      </trkpt>
      <trkpt lat="48.75875" lon="2.21431">
        <ele>165.67</ele>
        <time>2019-11-10T11:34:35Z</time>
      </trkpt>
      <trkpt lat="48.75863" lon="2.21453">
        <ele>162.55</ele>
        <time>2019-11-10T11:35:07Z</time>
      </trkpt>
      <trkpt lat="48.75845" lon="2.21451">
        <ele>160.85</ele>
        <time>2019-11-10T11:35:35Z</time>
      </trkpt>
      <trkpt lat="48.75824" lon="2.21456">
        <ele>157.62</ele>
        <time>2019-11-10T11:35:59Z</time>
      </trkpt>
      <trkpt lat="48.75806" lon="2.21447">
        <ele>153.71</ele>
        <time>2019-11-10T11:36:39Z</time>
      </trkpt>
      <trkpt lat="48.75789" lon="2.21437">
        <ele>150.16</ele>
        <time>2019-11-10T11:36:59Z</time>
      </trkpt>
      <trkpt lat="48.7577" lon="2.21432">
        <ele>147.45</ele>
        <time>2019-11-10T11:37:16Z</time>
      </trkpt>
      <trkpt lat="48.75751" lon="2.21425">
        <ele>145.9</ele>
        <time>2019-11-10T11:37:32Z</time>
      </trkpt>
      <trkpt lat="48.75732" lon="2.21421">
        <ele>143.36</ele>
        <time>2019-11-10T11:37:49Z</time>
      </trkpt>
      <trkpt lat="48.75714" lon="2.21419">
        <ele>140.52</ele>
        <time>2019-11-10T11:38:06Z</time>
      </trkpt>
      <trkpt lat="48.75695" lon="2.21425">
        <ele>137.18</ele>
        <time>2019-11-10T11:38:24Z</time>
      </trkpt>
      <trkpt lat="48.75677" lon="2.21435">
        <ele>135.86</ele>
        <time>2019-11-10T11:38:36Z</time>
      </trkpt>
      <trkpt lat="48.7566" lon="2.21442">
        <ele>129.77</ele>
        <time>2019-11-10T11:40:29Z</time>
      </trkpt>
      <trkpt lat="48.75645" lon="2.21427">
        <ele>127.21</ele>
        <time>2019-11-10T11:41:47Z</time>
      </trkpt>
      <trkpt lat="48.75629" lon="2.21413">
        <ele>126.25</ele>
        <time>2019-11-10T11:42:05Z</time>
      </trkpt>
      <trkpt lat="48.7561" lon="2.21405">
        <ele>122.75</ele>
        <time>2019-11-10T11:42:28Z</time>
      </trkpt>
      <trkpt lat="48.75591" lon="2.21406">
        <ele>121.1</ele>
        <time>2019-11-10T11:42:43Z</time>
      </trkpt>
      <trkpt lat="48.75575" lon="2.21421">
        <ele>119.97</ele>
        <time>2019-11-10T11:43:00Z</time>
      </trkpt>
      <trkpt lat="48.75557" lon="2.21425">
        <ele>118.69</ele>
        <time>2019-11-10T11:43:15Z</time>
      </trkpt>
      <trkpt lat="48.75538" lon="2.21424">
        <ele>116.5</ele>
        <time>2019-11-10T11:43:31Z</time>
      </trkpt>
      <trkpt lat="48.75519" lon="2.21424">
        <ele>114.62</ele>
        <time>2019-11-10T11:43:48Z</time>
      </trkpt>
      <trkpt lat="48.75507" lon="2.21445">
        <ele>106.92</ele>
        <time>2019-11-10T11:44:35Z</time>
      </trkpt>
      <trkpt lat="48.755" lon="2.2147">
        <ele>105.62</ele>
        <time>2019-11-10T11:44:49Z</time>
      </trkpt>
      <trkpt lat="48.75488" lon="2.21492">
        <ele>102.94</ele>
        <time>2019-11-10T11:46:08Z</time>
      </trkpt>
      <trkpt lat="48.75472" lon="2.21511">
        <ele>101.75</ele>
        <time>2019-11-10T11:46:27Z</time>
      </trkpt>
      <trkpt lat="48.75454" lon="2.21514">
        <ele>101.35</ele>
        <time>2019-11-10T11:46:42Z</time>
      </trkpt>
      <trkpt lat="48.75436" lon="2.21518">
        <ele>100.78</ele>
        <time>2019-11-10T11:47:24Z</time>
      </trkpt>
      <trkpt lat="48.7545" lon="2.21498">
        <ele>95.35</ele>
        <time>2019-11-10T12:07:30Z</time>
      </trkpt>
      <trkpt lat="48.75434" lon="2.21513">
        <ele>96.09</ele>
        <time>2019-11-10T12:13:17Z</time>
      </trkpt>
      <trkpt lat="48.75453" lon="2.21515">
        <ele>97.75</ele>
        <time>2019-11-10T12:18:44Z</time>
      </trkpt>
      <trkpt lat="48.7547" lon="2.21505">
        <ele>96.18</ele>
        <time>2019-11-10T12:19:35Z</time>
      </trkpt>
      <trkpt lat="48.75485" lon="2.21488">
        <ele>94.24</ele>
        <time>2019-11-10T12:19:54Z</time>
      </trkpt>
      <trkpt lat="48.75476" lon="2.21462">
        <ele>97.63</ele>
        <time>2019-11-10T12:24:42Z</time>
      </trkpt>
      <trkpt lat="48.75528" lon="2.21495">
        <ele>54.19</ele>
        <time>2019-11-10T12:26:46Z</time>
      </trkpt>
      <trkpt lat="48.7551" lon="2.21493">
        <ele>36.79</ele>
        <time>2019-11-10T12:26:57Z</time>
      </trkpt>
      <trkpt lat="48.75496" lon="2.21475">
        <ele>100.75</ele>
        <time>2019-11-10T12:28:14Z</time>
      </trkpt>
      <trkpt lat="48.75481" lon="2.21492">
        <ele>101.25</ele>
        <time>2019-11-10T12:30:21Z</time>
      </trkpt>
      <trkpt lat="48.75468" lon="2.21511">
        <ele>99.25</ele>
        <time>2019-11-10T12:30:40Z</time>
      </trkpt>
      <trkpt lat="48.75454" lon="2.21531">
        <ele>96.24</ele>
        <time>2019-11-10T12:32:35Z</time>
      </trkpt>
      <trkpt lat="48.75438" lon="2.21545">
        <ele>94.15</ele>
        <time>2019-11-10T12:32:50Z</time>
      </trkpt>
      <trkpt lat="48.75424" lon="2.21565">
        <ele>92.39</ele>
        <time>2019-11-10T12:33:10Z</time>
      </trkpt>
      <trkpt lat="48.75407" lon="2.21575">
        <ele>92.01</ele>
        <time>2019-11-10T12:33:30Z</time>
      </trkpt>
      <trkpt lat="48.75393" lon="2.21593">
        <ele>89.85</ele>
        <time>2019-11-10T12:36:37Z</time>
      </trkpt>
      <trkpt lat="48.75375" lon="2.21598">
        <ele>89.16</ele>
        <time>2019-11-10T12:36:53Z</time>
      </trkpt>
      <trkpt lat="48.75356" lon="2.21596">
        <ele>87.6</ele>
        <time>2019-11-10T12:37:08Z</time>
      </trkpt>
      <trkpt lat="48.75338" lon="2.21592">
        <ele>85.69</ele>
        <time>2019-11-10T12:37:25Z</time>
      </trkpt>
      <trkpt lat="48.75321" lon="2.21581">
        <ele>84</ele>
        <time>2019-11-10T12:37:41Z</time>
      </trkpt>
      <trkpt lat="48.75306" lon="2.21563">
        <ele>82.79</ele>
        <time>2019-11-10T12:37:57Z</time>
      </trkpt>
      <trkpt lat="48.75293" lon="2.21544">
        <ele>82.01</ele>
        <time>2019-11-10T12:38:14Z</time>
      </trkpt>
      <trkpt lat="48.75275" lon="2.21545">
        <ele>80.48</ele>
        <time>2019-11-10T12:38:56Z</time>
      </trkpt>
      <trkpt lat="48.75266" lon="2.21569">
        <ele>79.49</ele>
        <time>2019-11-10T12:39:18Z</time>
      </trkpt>
      <trkpt lat="48.75257" lon="2.21594">
        <ele>77.76</ele>
        <time>2019-11-10T12:39:35Z</time>
      </trkpt>
      <trkpt lat="48.75249" lon="2.21618">
        <ele>76.26</ele>
        <time>2019-11-10T12:39:54Z</time>
      </trkpt>
      <trkpt lat="48.7524" lon="2.21643">
        <ele>74.42</ele>
        <time>2019-11-10T12:40:13Z</time>
      </trkpt>
      <trkpt lat="48.7523" lon="2.21667">
        <ele>73.41</ele>
        <time>2019-11-10T12:40:25Z</time>
      </trkpt>
      <trkpt lat="48.75219" lon="2.21689">
        <ele>74.17</ele>
        <time>2019-11-10T12:40:41Z</time>
      </trkpt>
      <trkpt lat="48.75214" lon="2.21716">
        <ele>74.28</ele>
        <time>2019-11-10T12:41:00Z</time>
      </trkpt>
      <trkpt lat="48.75227" lon="2.21738">
        <ele>73.09</ele>
        <time>2019-11-10T12:41:18Z</time>
      </trkpt>
      <trkpt lat="48.7524" lon="2.21757">
        <ele>72.13</ele>
        <time>2019-11-10T12:41:32Z</time>
      </trkpt>
      <trkpt lat="48.75254" lon="2.21776">
        <ele>71.62</ele>
        <time>2019-11-10T12:41:47Z</time>
      </trkpt>
      <trkpt lat="48.75266" lon="2.21796">
        <ele>72.43</ele>
        <time>2019-11-10T12:42:08Z</time>
      </trkpt>
      <trkpt lat="48.75258" lon="2.21822">
        <ele>75.27</ele>
        <time>2019-11-10T12:42:30Z</time>
      </trkpt>
      <trkpt lat="48.75247" lon="2.21843">
        <ele>77.12</ele>
        <time>2019-11-10T12:42:47Z</time>
      </trkpt>
      <trkpt lat="48.75236" lon="2.21867">
        <ele>77.94</ele>
        <time>2019-11-10T12:43:12Z</time>
      </trkpt>
      <trkpt lat="48.75219" lon="2.21878">
        <ele>76.43</ele>
        <time>2019-11-10T12:43:31Z</time>
      </trkpt>
      <trkpt lat="48.75204" lon="2.21894">
        <ele>73.98</ele>
        <time>2019-11-10T12:44:14Z</time>
      </trkpt>
      <trkpt lat="48.75192" lon="2.21914">
        <ele>71.76</ele>
        <time>2019-11-10T12:44:30Z</time>
      </trkpt>
      <trkpt lat="48.75179" lon="2.21935">
        <ele>71.47</ele>
        <time>2019-11-10T12:44:45Z</time>
      </trkpt>
      <trkpt lat="48.75168" lon="2.21959">
        <ele>72.02</ele>
        <time>2019-11-10T12:45:00Z</time>
      </trkpt>
      <trkpt lat="48.75156" lon="2.2198">
        <ele>72.56</ele>
        <time>2019-11-10T12:45:17Z</time>
      </trkpt>
      <trkpt lat="48.7514" lon="2.21996">
        <ele>72.44</ele>
        <time>2019-11-10T12:45:35Z</time>
      </trkpt>
      <trkpt lat="48.75121" lon="2.22001">
        <ele>72.1</ele>
        <time>2019-11-10T12:45:52Z</time>
      </trkpt>
      <trkpt lat="48.75103" lon="2.22007">
        <ele>71.15</ele>
        <time>2019-11-10T12:46:03Z</time>
      </trkpt>
      <trkpt lat="48.75085" lon="2.22011">
        <ele>69.4</ele>
        <time>2019-11-10T12:46:18Z</time>
      </trkpt>
      <trkpt lat="48.75067" lon="2.22005">
        <ele>70.72</ele>
        <time>2019-11-10T12:47:48Z</time>
      </trkpt>
      <trkpt lat="48.75049" lon="2.22008">
        <ele>70.97</ele>
        <time>2019-11-10T12:48:18Z</time>
      </trkpt>
      <trkpt lat="48.75031" lon="2.22017">
        <ele>71.05</ele>
        <time>2019-11-10T12:48:35Z</time>
      </trkpt>
      <trkpt lat="48.75015" lon="2.22027">
        <ele>71.58</ele>
        <time>2019-11-10T12:48:54Z</time>
      </trkpt>
      <trkpt lat="48.74996" lon="2.22036">
        <ele>70.73</ele>
        <time>2019-11-10T12:49:09Z</time>
      </trkpt>
      <trkpt lat="48.74978" lon="2.2203">
        <ele>70.72</ele>
        <time>2019-11-10T12:49:26Z</time>
      </trkpt>
      <trkpt lat="48.74967" lon="2.22006">
        <ele>71.83</ele>
        <time>2019-11-10T12:49:43Z</time>
      </trkpt>
      <trkpt lat="48.74949" lon="2.22004">
        <ele>74.7</ele>
        <time>2019-11-10T12:50:15Z</time>
      </trkpt>
      <trkpt lat="48.7494" lon="2.2203">
        <ele>75</ele>
        <time>2019-11-10T12:50:27Z</time>
      </trkpt>
      <trkpt lat="48.74926" lon="2.22047">
        <ele>74.53</ele>
        <time>2019-11-10T12:50:41Z</time>
      </trkpt>
      <trkpt lat="48.74912" lon="2.22067">
        <ele>74.3</ele>
        <time>2019-11-10T12:50:56Z</time>
      </trkpt>
      <trkpt lat="48.74904" lon="2.22093">
        <ele>74.99</ele>
        <time>2019-11-10T12:51:11Z</time>
      </trkpt>
      <trkpt lat="48.74908" lon="2.2212">
        <ele>76.74</ele>
        <time>2019-11-10T12:51:52Z</time>
      </trkpt>
      <trkpt lat="48.74898" lon="2.22143">
        <ele>77.68</ele>
        <time>2019-11-10T12:52:10Z</time>
      </trkpt>
      <trkpt lat="48.74888" lon="2.22166">
        <ele>78.28</ele>
        <time>2019-11-10T12:52:23Z</time>
      </trkpt>
      <trkpt lat="48.74882" lon="2.22192">
        <ele>77.7</ele>
        <time>2019-11-10T12:52:39Z</time>
      </trkpt>
      <trkpt lat="48.74876" lon="2.22219">
        <ele>76.46</ele>
        <time>2019-11-10T12:52:57Z</time>
      </trkpt>
      <trkpt lat="48.74869" lon="2.22244">
        <ele>76.41</ele>
        <time>2019-11-10T12:53:15Z</time>
      </trkpt>
      <trkpt lat="48.74861" lon="2.22269">
        <ele>76.21</ele>
        <time>2019-11-10T12:53:31Z</time>
      </trkpt>
      <trkpt lat="48.74852" lon="2.22293">
        <ele>76.6</ele>
        <time>2019-11-10T12:53:46Z</time>
      </trkpt>
      <trkpt lat="48.74843" lon="2.22318">
        <ele>77.07</ele>
        <time>2019-11-10T12:54:00Z</time>
      </trkpt>
      <trkpt lat="48.74833" lon="2.22342">
        <ele>77.62</ele>
        <time>2019-11-10T12:54:17Z</time>
      </trkpt>
      <trkpt lat="48.74823" lon="2.22365">
        <ele>76.69</ele>
        <time>2019-11-10T12:54:33Z</time>
      </trkpt>
      <trkpt lat="48.74818" lon="2.22392">
        <ele>74.49</ele>
        <time>2019-11-10T12:54:50Z</time>
      </trkpt>
      <trkpt lat="48.74828" lon="2.22417">
        <ele>73.52</ele>
        <time>2019-11-10T12:55:04Z</time>
      </trkpt>
      <trkpt lat="48.74843" lon="2.22435">
        <ele>73.71</ele>
        <time>2019-11-10T12:55:18Z</time>
      </trkpt>
      <trkpt lat="48.74855" lon="2.22455">
        <ele>74.46</ele>
        <time>2019-11-10T12:55:36Z</time>
      </trkpt>
      <trkpt lat="48.74853" lon="2.22484">
        <ele>75.21</ele>
        <time>2019-11-10T12:55:56Z</time>
      </trkpt>
      <trkpt lat="48.74862" lon="2.22508">
        <ele>74.97</ele>
        <time>2019-11-10T12:56:11Z</time>
      </trkpt>
      <trkpt lat="48.74867" lon="2.22535">
        <ele>76</ele>
        <time>2019-11-10T12:56:35Z</time>
      </trkpt>
      <trkpt lat="48.74855" lon="2.22556">
        <ele>76.44</ele>
        <time>2019-11-10T12:56:48Z</time>
      </trkpt>
      <trkpt lat="48.7484" lon="2.22571">
        <ele>76.9</ele>
        <time>2019-11-10T12:57:01Z</time>
      </trkpt>
      <trkpt lat="48.74823" lon="2.22582">
        <ele>77</ele>
        <time>2019-11-10T12:57:17Z</time>
      </trkpt>
      <trkpt lat="48.74809" lon="2.22601">
        <ele>77.74</ele>
        <time>2019-11-10T12:57:33Z</time>
      </trkpt>
      <trkpt lat="48.74794" lon="2.22616">
        <ele>78.42</ele>
        <time>2019-11-10T12:57:49Z</time>
      </trkpt>
      <trkpt lat="48.74779" lon="2.22632">
        <ele>78.13</ele>
        <time>2019-11-10T12:58:02Z</time>
      </trkpt>
      <trkpt lat="48.74765" lon="2.2265">
        <ele>77.41</ele>
        <time>2019-11-10T12:58:16Z</time>
      </trkpt>
      <trkpt lat="48.74752" lon="2.22673">
        <ele>76.74</ele>
        <time>2019-11-10T12:58:31Z</time>
      </trkpt>
      <trkpt lat="48.74742" lon="2.22695">
        <ele>76.19</ele>
        <time>2019-11-10T12:58:49Z</time>
      </trkpt>
      <trkpt lat="48.74733" lon="2.22719">
        <ele>76.01</ele>
        <time>2019-11-10T12:59:02Z</time>
      </trkpt>
      <trkpt lat="48.74721" lon="2.22742">
        <ele>76.42</ele>
        <time>2019-11-10T12:59:24Z</time>
      </trkpt>
      <trkpt lat="48.74714" lon="2.22769">
        <ele>76.37</ele>
        <time>2019-11-10T12:59:41Z</time>
      </trkpt>
      <trkpt lat="48.74709" lon="2.22795">
        <ele>76.43</ele>
        <time>2019-11-10T12:59:56Z</time>
      </trkpt>
      <trkpt lat="48.74692" lon="2.22803">
        <ele>75.88</ele>
        <time>2019-11-10T13:00:13Z</time>
      </trkpt>
      <trkpt lat="48.74674" lon="2.22802">
        <ele>76.02</ele>
        <time>2019-11-10T13:00:27Z</time>
      </trkpt>
      <trkpt lat="48.74664" lon="2.22826">
        <ele>76.02</ele>
        <time>2019-11-10T13:00:42Z</time>
      </trkpt>
      <trkpt lat="48.74658" lon="2.22852">
        <ele>75.09</ele>
        <time>2019-11-10T13:00:58Z</time>
      </trkpt>
      <trkpt lat="48.74654" lon="2.22879">
        <ele>74.22</ele>
        <time>2019-11-10T13:01:15Z</time>
      </trkpt>
      <trkpt lat="48.74643" lon="2.22901">
        <ele>74.11</ele>
        <time>2019-11-10T13:01:28Z</time>
      </trkpt>
      <trkpt lat="48.74626" lon="2.2291">
        <ele>74.93</ele>
        <time>2019-11-10T13:01:44Z</time>
      </trkpt>
      <trkpt lat="48.74612" lon="2.22929">
        <ele>68.17</ele>
        <time>2019-11-10T13:03:09Z</time>
      </trkpt>
      <trkpt lat="48.74595" lon="2.22938">
        <ele>68.68</ele>
        <time>2019-11-10T13:03:27Z</time>
      </trkpt>
      <trkpt lat="48.74583" lon="2.22961">
        <ele>70.49</ele>
        <time>2019-11-10T13:03:58Z</time>
      </trkpt>
      <trkpt lat="48.74566" lon="2.22975">
        <ele>71.92</ele>
        <time>2019-11-10T13:04:15Z</time>
      </trkpt>
      <trkpt lat="48.74552" lon="2.22991">
        <ele>72.61</ele>
        <time>2019-11-10T13:04:30Z</time>
      </trkpt>
      <trkpt lat="48.74538" lon="2.2301">
        <ele>73.52</ele>
        <time>2019-11-10T13:04:47Z</time>
      </trkpt>
      <trkpt lat="48.74521" lon="2.23022">
        <ele>73.93</ele>
        <time>2019-11-10T13:05:05Z</time>
      </trkpt>
      <trkpt lat="48.74503" lon="2.23029">
        <ele>73.68</ele>
        <time>2019-11-10T13:05:22Z</time>
      </trkpt>
      <trkpt lat="48.74484" lon="2.23024">
        <ele>72.67</ele>
        <time>2019-11-10T13:05:38Z</time>
      </trkpt>
      <trkpt lat="48.74467" lon="2.23016">
        <ele>72.11</ele>
        <time>2019-11-10T13:05:55Z</time>
      </trkpt>
      <trkpt lat="48.74449" lon="2.23023">
        <ele>72.86</ele>
        <time>2019-11-10T13:06:10Z</time>
      </trkpt>
      <trkpt lat="48.74436" lon="2.23043">
        <ele>73.13</ele>
        <time>2019-11-10T13:06:28Z</time>
      </trkpt>
      <trkpt lat="48.7442" lon="2.23056">
        <ele>72.5</ele>
        <time>2019-11-10T13:06:41Z</time>
      </trkpt>
      <trkpt lat="48.74409" lon="2.23035">
        <ele>71.61</ele>
        <time>2019-11-10T13:07:30Z</time>
      </trkpt>
      <trkpt lat="48.74391" lon="2.23043">
        <ele>71.3</ele>
        <time>2019-11-10T13:07:44Z</time>
      </trkpt>
      <trkpt lat="48.74372" lon="2.23046">
        <ele>70.56</ele>
        <time>2019-11-10T13:08:03Z</time>
      </trkpt>
      <trkpt lat="48.74354" lon="2.23042">
        <ele>69.46</ele>
        <time>2019-11-10T13:08:21Z</time>
      </trkpt>
      <trkpt lat="48.74337" lon="2.23048">
        <ele>68.26</ele>
        <time>2019-11-10T13:08:46Z</time>
      </trkpt>
      <trkpt lat="48.74318" lon="2.23051">
        <ele>67.64</ele>
        <time>2019-11-10T13:09:02Z</time>
      </trkpt>
      <trkpt lat="48.74299" lon="2.23054">
        <ele>67.87</ele>
        <time>2019-11-10T13:09:21Z</time>
      </trkpt>
      <trkpt lat="48.7428" lon="2.23053">
        <ele>68.04</ele>
        <time>2019-11-10T13:09:35Z</time>
      </trkpt>
      <trkpt lat="48.74262" lon="2.23062">
        <ele>68.24</ele>
        <time>2019-11-10T13:09:50Z</time>
      </trkpt>
      <trkpt lat="48.74248" lon="2.2308">
        <ele>68.05</ele>
        <time>2019-11-10T13:10:08Z</time>
      </trkpt>
      <trkpt lat="48.74229" lon="2.23079">
        <ele>67.11</ele>
        <time>2019-11-10T13:10:26Z</time>
      </trkpt>
      <trkpt lat="48.74211" lon="2.23078">
        <ele>66.78</ele>
        <time>2019-11-10T13:10:38Z</time>
      </trkpt>
      <trkpt lat="48.74206" lon="2.23104">
        <ele>66.94</ele>
        <time>2019-11-10T13:10:54Z</time>
      </trkpt>
      <trkpt lat="48.74188" lon="2.23115">
        <ele>66.84</ele>
        <time>2019-11-10T13:11:11Z</time>
      </trkpt>
      <trkpt lat="48.74172" lon="2.23129">
        <ele>66.09</ele>
        <time>2019-11-10T13:11:22Z</time>
      </trkpt>
      <trkpt lat="48.74162" lon="2.23152">
        <ele>65.91</ele>
        <time>2019-11-10T13:11:43Z</time>
      </trkpt>
      <trkpt lat="48.74157" lon="2.23178">
        <ele>65.53</ele>
        <time>2019-11-10T13:12:03Z</time>
      </trkpt>
      <trkpt lat="48.74158" lon="2.23208">
        <ele>65.08</ele>
        <time>2019-11-10T13:12:15Z</time>
      </trkpt>
      <trkpt lat="48.74164" lon="2.23234">
        <ele>64.86</ele>
        <time>2019-11-10T13:12:35Z</time>
      </trkpt>
      <trkpt lat="48.74166" lon="2.23262">
        <ele>71.33</ele>
        <time>2019-11-10T13:15:42Z</time>
      </trkpt>
      <trkpt lat="48.74169" lon="2.23291">
        <ele>72.9</ele>
        <time>2019-11-10T13:16:02Z</time>
      </trkpt>
      <trkpt lat="48.74168" lon="2.23319">
        <ele>73.31</ele>
        <time>2019-11-10T13:16:20Z</time>
      </trkpt>
      <trkpt lat="48.74165" lon="2.23348">
        <ele>73.5</ele>
        <time>2019-11-10T13:16:37Z</time>
      </trkpt>
      <trkpt lat="48.74162" lon="2.23376">
        <ele>73.73</ele>
        <time>2019-11-10T13:16:54Z</time>
      </trkpt>
      <trkpt lat="48.74158" lon="2.23404">
        <ele>72.9</ele>
        <time>2019-11-10T13:17:12Z</time>
      </trkpt>
      <trkpt lat="48.74163" lon="2.23432">
        <ele>72.86</ele>
        <time>2019-11-10T13:17:26Z</time>
      </trkpt>
      <trkpt lat="48.74165" lon="2.23462">
        <ele>72.25</ele>
        <time>2019-11-10T13:17:47Z</time>
      </trkpt>
      <trkpt lat="48.74158" lon="2.23489">
        <ele>73.31</ele>
        <time>2019-11-10T13:18:05Z</time>
      </trkpt>
      <trkpt lat="48.74154" lon="2.23516">
        <ele>74.27</ele>
        <time>2019-11-10T13:18:17Z</time>
      </trkpt>
      <trkpt lat="48.74146" lon="2.23542">
        <ele>74.69</ele>
        <time>2019-11-10T13:18:35Z</time>
      </trkpt>
      <trkpt lat="48.74136" lon="2.23567">
        <ele>74.53</ele>
        <time>2019-11-10T13:18:52Z</time>
      </trkpt>
      <trkpt lat="48.74126" lon="2.23592">
        <ele>74.52</ele>
        <time>2019-11-10T13:19:07Z</time>
      </trkpt>
      <trkpt lat="48.74113" lon="2.23612">
        <ele>73.85</ele>
        <time>2019-11-10T13:19:24Z</time>
      </trkpt>
      <trkpt lat="48.74106" lon="2.23638">
        <ele>74.12</ele>
        <time>2019-11-10T13:19:40Z</time>
      </trkpt>
      <trkpt lat="48.74116" lon="2.23662">
        <ele>74.31</ele>
        <time>2019-11-10T13:20:14Z</time>
      </trkpt>
      <trkpt lat="48.74132" lon="2.23676">
        <ele>75.24</ele>
        <time>2019-11-10T13:20:31Z</time>
      </trkpt>
      <trkpt lat="48.74149" lon="2.23685">
        <ele>77.72</ele>
        <time>2019-11-10T13:20:52Z</time>
      </trkpt>
      <trkpt lat="48.74167" lon="2.23689">
        <ele>82</ele>
        <time>2019-11-10T13:21:13Z</time>
      </trkpt>
      <trkpt lat="48.74185" lon="2.23695">
        <ele>85.9</ele>
        <time>2019-11-10T13:21:39Z</time>
      </trkpt>
      <trkpt lat="48.742" lon="2.2368">
        <ele>92.73</ele>
        <time>2019-11-10T13:26:25Z</time>
      </trkpt>
      <trkpt lat="48.74218" lon="2.23673">
        <ele>92.04</ele>
        <time>2019-11-10T13:26:46Z</time>
      </trkpt>
      <trkpt lat="48.74232" lon="2.23655">
        <ele>91.84</ele>
        <time>2019-11-10T13:27:08Z</time>
      </trkpt>
      <trkpt lat="48.74237" lon="2.23628">
        <ele>91.67</ele>
        <time>2019-11-10T13:27:25Z</time>
      </trkpt>
      <trkpt lat="48.74248" lon="2.23606">
        <ele>93.73</ele>
        <time>2019-11-10T13:27:48Z</time>
      </trkpt>
      <trkpt lat="48.74262" lon="2.23587">
        <ele>95.5</ele>
        <time>2019-11-10T13:28:11Z</time>
      </trkpt>
      <trkpt lat="48.74281" lon="2.23591">
        <ele>96.44</ele>
        <time>2019-11-10T13:28:34Z</time>
      </trkpt>
      <trkpt lat="48.74294" lon="2.23611">
        <ele>96.55</ele>
        <time>2019-11-10T13:28:57Z</time>
      </trkpt>
      <trkpt lat="48.743" lon="2.23637">
        <ele>97.43</ele>
        <time>2019-11-10T13:29:15Z</time>
      </trkpt>
      <trkpt lat="48.74318" lon="2.23646">
        <ele>102.2</ele>
        <time>2019-11-10T13:29:45Z</time>
      </trkpt>
      <trkpt lat="48.74319" lon="2.23674">
        <ele>110.99</ele>
        <time>2019-11-10T13:30:54Z</time>
      </trkpt>
      <trkpt lat="48.74305" lon="2.23692">
        <ele>111.52</ele>
        <time>2019-11-10T13:31:07Z</time>
      </trkpt>
      <trkpt lat="48.74296" lon="2.23717">
        <ele>113.88</ele>
        <time>2019-11-10T13:31:26Z</time>
      </trkpt>
      <trkpt lat="48.74298" lon="2.23745">
        <ele>114.72</ele>
        <time>2019-11-10T13:31:52Z</time>
      </trkpt>
      <trkpt lat="48.74315" lon="2.23754">
        <ele>118.14</ele>
        <time>2019-11-10T13:32:14Z</time>
      </trkpt>
      <trkpt lat="48.74332" lon="2.23766">
        <ele>120.27</ele>
        <time>2019-11-10T13:32:37Z</time>
      </trkpt>
      <trkpt lat="48.74349" lon="2.23774">
        <ele>127.09</ele>
        <time>2019-11-10T13:33:03Z</time>
      </trkpt>
      <trkpt lat="48.74367" lon="2.23778">
        <ele>134.23</ele>
        <time>2019-11-10T13:33:30Z</time>
      </trkpt>
      <trkpt lat="48.74385" lon="2.23782">
        <ele>140.41</ele>
        <time>2019-11-10T13:33:56Z</time>
      </trkpt>
      <trkpt lat="48.74404" lon="2.23787">
        <ele>145.73</ele>
        <time>2019-11-10T13:34:22Z</time>
      </trkpt>
      <trkpt lat="48.74389" lon="2.23806">
        <ele>150.65</ele>
        <time>2019-11-10T13:40:43Z</time>
      </trkpt>
      <trkpt lat="48.74377" lon="2.23827">
        <ele>151.3</ele>
        <time>2019-11-10T13:40:59Z</time>
      </trkpt>
      <trkpt lat="48.7437" lon="2.23853">
        <ele>151.73</ele>
        <time>2019-11-10T13:41:16Z</time>
      </trkpt>
      <trkpt lat="48.74369" lon="2.23881">
        <ele>151.01</ele>
        <time>2019-11-10T13:41:31Z</time>
      </trkpt>
      <trkpt lat="48.7438" lon="2.23905">
        <ele>150.49</ele>
        <time>2019-11-10T13:41:46Z</time>
      </trkpt>
      <trkpt lat="48.74396" lon="2.23919">
        <ele>150.87</ele>
        <time>2019-11-10T13:41:57Z</time>
      </trkpt>
      <trkpt lat="48.74413" lon="2.23933">
        <ele>153</ele>
        <time>2019-11-10T13:42:14Z</time>
      </trkpt>
      <trkpt lat="48.74429" lon="2.23944">
        <ele>154.82</ele>
        <time>2019-11-10T13:42:29Z</time>
      </trkpt>
      <trkpt lat="48.74447" lon="2.23953">
        <ele>157.56</ele>
        <time>2019-11-10T13:42:44Z</time>
      </trkpt>
      <trkpt lat="48.74465" lon="2.23959">
        <ele>158.98</ele>
        <time>2019-11-10T13:42:57Z</time>
      </trkpt>
      <trkpt lat="48.74484" lon="2.23965">
        <ele>160.04</ele>
        <time>2019-11-10T13:43:13Z</time>
      </trkpt>
      <trkpt lat="48.74502" lon="2.23972">
        <ele>161.28</ele>
        <time>2019-11-10T13:43:29Z</time>
      </trkpt>
      <trkpt lat="48.7452" lon="2.2398">
        <ele>160.8</ele>
        <time>2019-11-10T13:43:43Z</time>
      </trkpt>
      <trkpt lat="48.74538" lon="2.23987">
        <ele>159.54</ele>
        <time>2019-11-10T13:43:58Z</time>
      </trkpt>
      <trkpt lat="48.74554" lon="2.24002">
        <ele>159.21</ele>
        <time>2019-11-10T13:44:17Z</time>
      </trkpt>
      <trkpt lat="48.74569" lon="2.24017">
        <ele>160.45</ele>
        <time>2019-11-10T13:44:36Z</time>
      </trkpt>
      <trkpt lat="48.74587" lon="2.24027">
        <ele>160.54</ele>
        <time>2019-11-10T13:44:52Z</time>
      </trkpt>
      <trkpt lat="48.74605" lon="2.24034">
        <ele>160.12</ele>
        <time>2019-11-10T13:45:06Z</time>
      </trkpt>
      <trkpt lat="48.74616" lon="2.24058">
        <ele>159.64</ele>
        <time>2019-11-10T13:46:27Z</time>
      </trkpt>
      <trkpt lat="48.74627" lon="2.24079">
        <ele>159.93</ele>
        <time>2019-11-10T13:46:53Z</time>
      </trkpt>
      <trkpt lat="48.74634" lon="2.24107">
        <ele>159.79</ele>
        <time>2019-11-10T13:47:11Z</time>
      </trkpt>
      <trkpt lat="48.74634" lon="2.24136">
        <ele>159.25</ele>
        <time>2019-11-10T13:47:23Z</time>
      </trkpt>
      <trkpt lat="48.74628" lon="2.24163">
        <ele>158.68</ele>
        <time>2019-11-10T13:47:38Z</time>
      </trkpt>
      <trkpt lat="48.74628" lon="2.24192">
        <ele>160.06</ele>
        <time>2019-11-10T13:48:00Z</time>
      </trkpt>
      <trkpt lat="48.7463" lon="2.2422">
        <ele>161.92</ele>
        <time>2019-11-10T13:48:18Z</time>
      </trkpt>
      <trkpt lat="48.74633" lon="2.24247">
        <ele>162.64</ele>
        <time>2019-11-10T13:48:32Z</time>
      </trkpt>
      <trkpt lat="48.74633" lon="2.24277">
        <ele>161.97</ele>
        <time>2019-11-10T13:48:53Z</time>
      </trkpt>
      <trkpt lat="48.74629" lon="2.24304">
        <ele>160.73</ele>
        <time>2019-11-10T13:49:07Z</time>
      </trkpt>
      <trkpt lat="48.74615" lon="2.24321">
        <ele>158.76</ele>
        <time>2019-11-10T13:49:21Z</time>
      </trkpt>
      <trkpt lat="48.74598" lon="2.24331">
        <ele>157.92</ele>
        <time>2019-11-10T13:49:34Z</time>
      </trkpt>
      <trkpt lat="48.74582" lon="2.24346">
        <ele>159.17</ele>
        <time>2019-11-10T13:49:50Z</time>
      </trkpt>
      <trkpt lat="48.74565" lon="2.24357">
        <ele>161.39</ele>
        <time>2019-11-10T13:50:07Z</time>
      </trkpt>
      <trkpt lat="48.74583" lon="2.24359">
        <ele>160.37</ele>
        <time>2019-11-10T13:50:54Z</time>
      </trkpt>
      <trkpt lat="48.74599" lon="2.24375">
        <ele>160.05</ele>
        <time>2019-11-10T13:51:24Z</time>
      </trkpt>
      <trkpt lat="48.74612" lon="2.24394">
        <ele>161.24</ele>
        <time>2019-11-10T13:51:43Z</time>
      </trkpt>
      <trkpt lat="48.74625" lon="2.24414">
        <ele>161.23</ele>
        <time>2019-11-10T13:52:03Z</time>
      </trkpt>
      <trkpt lat="48.7464" lon="2.24433">
        <ele>162.81</ele>
        <time>2019-11-10T13:52:20Z</time>
      </trkpt>
      <trkpt lat="48.74654" lon="2.24453">
        <ele>163.44</ele>
        <time>2019-11-10T13:52:38Z</time>
      </trkpt>
      <trkpt lat="48.74668" lon="2.2447">
        <ele>165.04</ele>
        <time>2019-11-10T13:52:59Z</time>
      </trkpt>
      <trkpt lat="48.74681" lon="2.24489">
        <ele>167.07</ele>
        <time>2019-11-10T13:53:16Z</time>
      </trkpt>
      <trkpt lat="48.74699" lon="2.245">
        <ele>169.26</ele>
        <time>2019-11-10T13:53:36Z</time>
      </trkpt>
      <trkpt lat="48.74712" lon="2.24518">
        <ele>170.9</ele>
        <time>2019-11-10T13:53:58Z</time>
      </trkpt>
      <trkpt lat="48.74729" lon="2.24527">
        <ele>172.84</ele>
        <time>2019-11-10T13:54:18Z</time>
      </trkpt>
      <trkpt lat="48.74748" lon="2.24531">
        <ele>174.44</ele>
        <time>2019-11-10T13:54:35Z</time>
      </trkpt>
      <trkpt lat="48.74766" lon="2.24539">
        <ele>175.7</ele>
        <time>2019-11-10T13:54:54Z</time>
      </trkpt>
      <trkpt lat="48.74784" lon="2.24539">
        <ele>175.76</ele>
        <time>2019-11-10T13:55:09Z</time>
      </trkpt>
      <trkpt lat="48.74803" lon="2.24542">
        <ele>175.48</ele>
        <time>2019-11-10T13:55:28Z</time>
      </trkpt>
      <trkpt lat="48.74821" lon="2.24548">
        <ele>174.57</ele>
        <time>2019-11-10T13:55:47Z</time>
      </trkpt>
      <trkpt lat="48.74839" lon="2.2455">
        <ele>174.15</ele>
        <time>2019-11-10T13:55:58Z</time>
      </trkpt>
      <trkpt lat="48.74856" lon="2.24561">
        <ele>173.68</ele>
        <time>2019-11-10T13:56:17Z</time>
      </trkpt>
      <trkpt lat="48.74875" lon="2.24564">
        <ele>173.42</ele>
        <time>2019-11-10T13:56:40Z</time>
      </trkpt>
      <trkpt lat="48.74894" lon="2.24565">
        <ele>173.47</ele>
        <time>2019-11-10T13:56:55Z</time>
      </trkpt>
      <trkpt lat="48.74911" lon="2.2457">
        <ele>174.05</ele>
        <time>2019-11-10T13:57:11Z</time>
      </trkpt>
      <trkpt lat="48.74927" lon="2.24587">
        <ele>175.5</ele>
        <time>2019-11-10T13:57:27Z</time>
      </trkpt>
      <trkpt lat="48.7494" lon="2.24606">
        <ele>175.38</ele>
        <time>2019-11-10T13:57:52Z</time>
      </trkpt>
      <trkpt lat="48.74953" lon="2.24625">
        <ele>174.68</ele>
        <time>2019-11-10T13:58:08Z</time>
      </trkpt>
      <trkpt lat="48.74967" lon="2.24643">
        <ele>175.56</ele>
        <time>2019-11-10T13:58:26Z</time>
      </trkpt>
      <trkpt lat="48.74982" lon="2.24658">
        <ele>176.99</ele>
        <time>2019-11-10T13:58:45Z</time>
      </trkpt>
      <trkpt lat="48.74997" lon="2.24676">
        <ele>178.73</ele>
        <time>2019-11-10T13:59:00Z</time>
      </trkpt>
      <trkpt lat="48.75011" lon="2.24696">
        <ele>181.81</ele>
        <time>2019-11-10T13:59:20Z</time>
      </trkpt>
      <trkpt lat="48.75026" lon="2.24712">
        <ele>182.9</ele>
        <time>2019-11-10T13:59:40Z</time>
      </trkpt>
      <trkpt lat="48.7504" lon="2.24732">
        <ele>183.05</ele>
        <time>2019-11-10T13:59:58Z</time>
      </trkpt>
      <trkpt lat="48.75054" lon="2.24752">
        <ele>183.27</ele>
        <time>2019-11-10T14:00:14Z</time>
      </trkpt>
      <trkpt lat="48.75058" lon="2.24778">
        <ele>182.43</ele>
        <time>2019-11-10T14:00:38Z</time>
      </trkpt>
      <trkpt lat="48.75048" lon="2.24801">
        <ele>181.48</ele>
        <time>2019-11-10T14:03:27Z</time>
      </trkpt>
      <trkpt lat="48.7506" lon="2.24821">
        <ele>185.02</ele>
        <time>2019-11-10T14:07:46Z</time>
      </trkpt>
      <trkpt lat="48.75072" lon="2.24843">
        <ele>184.13</ele>
        <time>2019-11-10T14:08:06Z</time>
      </trkpt>
      <trkpt lat="48.75086" lon="2.24863">
        <ele>181.99</ele>
        <time>2019-11-10T14:08:26Z</time>
      </trkpt>
      <trkpt lat="48.75096" lon="2.24885">
        <ele>179.48</ele>
        <time>2019-11-10T14:08:45Z</time>
      </trkpt>
      <trkpt lat="48.75109" lon="2.24906">
        <ele>178.26</ele>
        <time>2019-11-10T14:08:58Z</time>
      </trkpt>
      <trkpt lat="48.75121" lon="2.24928">
        <ele>177.49</ele>
        <time>2019-11-10T14:09:11Z</time>
      </trkpt>
      <trkpt lat="48.75135" lon="2.24947">
        <ele>177.55</ele>
        <time>2019-11-10T14:09:30Z</time>
      </trkpt>
      <trkpt lat="48.75146" lon="2.24969">
        <ele>176.54</ele>
        <time>2019-11-10T14:09:48Z</time>
      </trkpt>
      <trkpt lat="48.75156" lon="2.24993">
        <ele>175.56</ele>
        <time>2019-11-10T14:10:02Z</time>
      </trkpt>
      <trkpt lat="48.75168" lon="2.25014">
        <ele>173.33</ele>
        <time>2019-11-10T14:10:20Z</time>
      </trkpt>
      <trkpt lat="48.75177" lon="2.25038">
        <ele>172.2</ele>
        <time>2019-11-10T14:10:35Z</time>
      </trkpt>
      <trkpt lat="48.75187" lon="2.25062">
        <ele>172.02</ele>
        <time>2019-11-10T14:10:52Z</time>
      </trkpt>
      <trkpt lat="48.75198" lon="2.25087">
        <ele>171.92</ele>
        <time>2019-11-10T14:11:08Z</time>
      </trkpt>
      <trkpt lat="48.75208" lon="2.2511">
        <ele>172.55</ele>
        <time>2019-11-10T14:11:25Z</time>
      </trkpt>
      <trkpt lat="48.75219" lon="2.25134">
        <ele>174.19</ele>
        <time>2019-11-10T14:11:39Z</time>
      </trkpt>
      <trkpt lat="48.75228" lon="2.25159">
        <ele>176.17</ele>
        <time>2019-11-10T14:11:54Z</time>
      </trkpt>
      <trkpt lat="48.75229" lon="2.25188">
        <ele>177.5</ele>
        <time>2019-11-10T14:12:11Z</time>
      </trkpt>
      <trkpt lat="48.75228" lon="2.25216">
        <ele>178.86</ele>
        <time>2019-11-10T14:12:28Z</time>
      </trkpt>
      <trkpt lat="48.75228" lon="2.25244">
        <ele>180.14</ele>
        <time>2019-11-10T14:12:47Z</time>
      </trkpt>
      <trkpt lat="48.75231" lon="2.25271">
        <ele>178.95</ele>
        <time>2019-11-10T14:13:06Z</time>
      </trkpt>
      <trkpt lat="48.75234" lon="2.25298">
        <ele>176.6</ele>
        <time>2019-11-10T14:13:29Z</time>
      </trkpt>
      <trkpt lat="48.75241" lon="2.25326">
        <ele>174.26</ele>
        <time>2019-11-10T14:13:45Z</time>
      </trkpt>
      <trkpt lat="48.75247" lon="2.25352">
        <ele>171.47</ele>
        <time>2019-11-10T14:14:00Z</time>
      </trkpt>
      <trkpt lat="48.75253" lon="2.2538">
        <ele>167.91</ele>
        <time>2019-11-10T14:14:19Z</time>
      </trkpt>
      <trkpt lat="48.75254" lon="2.25408">
        <ele>165.96</ele>
        <time>2019-11-10T14:14:32Z</time>
      </trkpt>
      <trkpt lat="48.75256" lon="2.25437">
        <ele>164.75</ele>
        <time>2019-11-10T14:14:47Z</time>
      </trkpt>
      <trkpt lat="48.75257" lon="2.25464">
        <ele>164.91</ele>
        <time>2019-11-10T14:15:05Z</time>
      </trkpt>
      <trkpt lat="48.75257" lon="2.25493">
        <ele>165.25</ele>
        <time>2019-11-10T14:15:16Z</time>
      </trkpt>
      <trkpt lat="48.75254" lon="2.2552">
        <ele>166.43</ele>
        <time>2019-11-10T14:15:35Z</time>
      </trkpt>
      <trkpt lat="48.75254" lon="2.25547">
        <ele>167.71</ele>
        <time>2019-11-10T14:15:49Z</time>
      </trkpt>
      <trkpt lat="48.75245" lon="2.25573">
        <ele>168.49</ele>
        <time>2019-11-10T14:15:58Z</time>
      </trkpt>
      <trkpt lat="48.75234" lon="2.25597">
        <ele>169.61</ele>
        <time>2019-11-10T14:16:10Z</time>
      </trkpt>
      <trkpt lat="48.75225" lon="2.25621">
        <ele>170.49</ele>
        <time>2019-11-10T14:16:27Z</time>
      </trkpt>
      <trkpt lat="48.75216" lon="2.25645">
        <ele>168.98</ele>
        <time>2019-11-10T14:21:45Z</time>
      </trkpt>
      <trkpt lat="48.75213" lon="2.25674">
        <ele>169.52</ele>
        <time>2019-11-10T14:22:06Z</time>
      </trkpt>
      <trkpt lat="48.75207" lon="2.257">
        <ele>169.6</ele>
        <time>2019-11-10T14:22:21Z</time>
      </trkpt>
      <trkpt lat="48.75201" lon="2.25727">
        <ele>168.69</ele>
        <time>2019-11-10T14:22:38Z</time>
      </trkpt>
      <trkpt lat="48.75191" lon="2.25751">
        <ele>167.5</ele>
        <time>2019-11-10T14:22:52Z</time>
      </trkpt>
      <trkpt lat="48.7518" lon="2.25774">
        <ele>165.92</ele>
        <time>2019-11-10T14:23:05Z</time>
      </trkpt>
      <trkpt lat="48.75193" lon="2.25752">
        <ele>162.03</ele>
        <time>2019-11-10T14:23:56Z</time>
      </trkpt>
      <trkpt lat="48.7521" lon="2.25742">
        <ele>162.72</ele>
        <time>2019-11-10T14:24:11Z</time>
      </trkpt>
      <trkpt lat="48.75217" lon="2.25768">
        <ele>167.5</ele>
        <time>2019-11-10T14:25:00Z</time>
      </trkpt>
      <trkpt lat="48.75211" lon="2.25795">
        <ele>169.23</ele>
        <time>2019-11-10T14:25:13Z</time>
      </trkpt>
      <trkpt lat="48.75211" lon="2.25823">
        <ele>170.01</ele>
        <time>2019-11-10T14:25:34Z</time>
      </trkpt>
      <trkpt lat="48.75219" lon="2.25849">
        <ele>170.2</ele>
        <time>2019-11-10T14:25:51Z</time>
      </trkpt>
      <trkpt lat="48.75231" lon="2.2587">
        <ele>170.75</ele>
        <time>2019-11-10T14:26:18Z</time>
      </trkpt>
      <trkpt lat="48.75242" lon="2.25893">
        <ele>171.59</ele>
        <time>2019-11-10T14:26:32Z</time>
      </trkpt>
      <trkpt lat="48.75256" lon="2.25911">
        <ele>172.14</ele>
        <time>2019-11-10T14:26:49Z</time>
      </trkpt>
      <trkpt lat="48.75271" lon="2.25929">
        <ele>173.45</ele>
        <time>2019-11-10T14:27:07Z</time>
      </trkpt>
      <trkpt lat="48.75286" lon="2.25944">
        <ele>172.37</ele>
        <time>2019-11-10T14:27:24Z</time>
      </trkpt>
      <trkpt lat="48.75298" lon="2.25966">
        <ele>171</ele>
        <time>2019-11-10T14:27:37Z</time>
      </trkpt>
      <trkpt lat="48.75309" lon="2.2599">
        <ele>169.59</ele>
        <time>2019-11-10T14:27:55Z</time>
      </trkpt>
      <trkpt lat="48.75319" lon="2.26014">
        <ele>168.84</ele>
        <time>2019-11-10T14:28:12Z</time>
      </trkpt>
      <trkpt lat="48.75325" lon="2.2604">
        <ele>167.93</ele>
        <time>2019-11-10T14:28:25Z</time>
      </trkpt>
      <trkpt lat="48.75333" lon="2.26065">
        <ele>166.91</ele>
        <time>2019-11-10T14:28:40Z</time>
      </trkpt>
      <trkpt lat="48.75344" lon="2.26087">
        <ele>166.43</ele>
        <time>2019-11-10T14:28:59Z</time>
      </trkpt>
      <trkpt lat="48.75362" lon="2.26095">
        <ele>165.42</ele>
        <time>2019-11-10T14:29:14Z</time>
      </trkpt>
      <trkpt lat="48.75381" lon="2.261">
        <ele>163.79</ele>
        <time>2019-11-10T14:29:28Z</time>
      </trkpt>
      <trkpt lat="48.75399" lon="2.26102">
        <ele>162.69</ele>
        <time>2019-11-10T14:29:39Z</time>
      </trkpt>
      <trkpt lat="48.75418" lon="2.26107">
        <ele>161.72</ele>
        <time>2019-11-10T14:29:52Z</time>
      </trkpt>
      <trkpt lat="48.75437" lon="2.26108">
        <ele>161.15</ele>
        <time>2019-11-10T14:30:12Z</time>
      </trkpt>
      <trkpt lat="48.75446" lon="2.26134">
        <ele>162.54</ele>
        <time>2019-11-10T14:30:53Z</time>
      </trkpt>
      <trkpt lat="48.75457" lon="2.26157">
        <ele>161.4</ele>
        <time>2019-11-10T14:31:14Z</time>
      </trkpt>
      <trkpt lat="48.75469" lon="2.26178">
        <ele>159.32</ele>
        <time>2019-11-10T14:31:32Z</time>
      </trkpt>
      <trkpt lat="48.75482" lon="2.26196">
        <ele>155.57</ele>
        <time>2019-11-10T14:31:50Z</time>
      </trkpt>
      <trkpt lat="48.75495" lon="2.26217">
        <ele>148.6</ele>
        <time>2019-11-10T14:32:08Z</time>
      </trkpt>
      <trkpt lat="48.75506" lon="2.26241">
        <ele>144.14</ele>
        <time>2019-11-10T14:32:23Z</time>
      </trkpt>
      <trkpt lat="48.7552" lon="2.26258">
        <ele>140.88</ele>
        <time>2019-11-10T14:32:43Z</time>
      </trkpt>
      <trkpt lat="48.75533" lon="2.26277">
        <ele>138.65</ele>
        <time>2019-11-10T14:33:06Z</time>
      </trkpt>
      <trkpt lat="48.75549" lon="2.2629">
        <ele>137.12</ele>
        <time>2019-11-10T14:33:17Z</time>
      </trkpt>
      <trkpt lat="48.75564" lon="2.26305">
        <ele>134.43</ele>
        <time>2019-11-10T14:33:38Z</time>
      </trkpt>
      <trkpt lat="48.75579" lon="2.26324">
        <ele>131.62</ele>
        <time>2019-11-10T14:34:05Z</time>
      </trkpt>
      <trkpt lat="48.75593" lon="2.26341">
        <ele>129.2</ele>
        <time>2019-11-10T14:34:42Z</time>
      </trkpt>
      <trkpt lat="48.75606" lon="2.26361">
        <ele>129.24</ele>
        <time>2019-11-10T14:35:58Z</time>
      </trkpt>
      <trkpt lat="48.75619" lon="2.26381">
        <ele>127.31</ele>
        <time>2019-11-10T14:37:14Z</time>
      </trkpt>
      <trkpt lat="48.75633" lon="2.26398">
        <ele>128.77</ele>
        <time>2019-11-10T14:37:37Z</time>
      </trkpt>
      <trkpt lat="48.7565" lon="2.26408">
        <ele>130.99</ele>
        <time>2019-11-10T14:37:54Z</time>
      </trkpt>
      <trkpt lat="48.75668" lon="2.26415">
        <ele>132.97</ele>
        <time>2019-11-10T14:38:13Z</time>
      </trkpt>
      <trkpt lat="48.75686" lon="2.26421">
        <ele>134.52</ele>
        <time>2019-11-10T14:38:32Z</time>
      </trkpt>
      <trkpt lat="48.75705" lon="2.26427">
        <ele>135.35</ele>
        <time>2019-11-10T14:38:50Z</time>
      </trkpt>
      <trkpt lat="48.75722" lon="2.26436">
        <ele>135.36</ele>
        <time>2019-11-10T14:39:07Z</time>
      </trkpt>
      <trkpt lat="48.75739" lon="2.26444">
        <ele>135.66</ele>
        <time>2019-11-10T14:39:24Z</time>
      </trkpt>
      <trkpt lat="48.75758" lon="2.26446">
        <ele>135.9</ele>
        <time>2019-11-10T14:39:41Z</time>
      </trkpt>
      <trkpt lat="48.75776" lon="2.26452">
        <ele>136.39</ele>
        <time>2019-11-10T14:39:58Z</time>
      </trkpt>
      <trkpt lat="48.75789" lon="2.26472">
        <ele>138.28</ele>
        <time>2019-11-10T14:40:24Z</time>
      </trkpt>
      <trkpt lat="48.75795" lon="2.26498">
        <ele>139.09</ele>
        <time>2019-11-10T14:40:39Z</time>
      </trkpt>
      <trkpt lat="48.75778" lon="2.2651">
        <ele>138.27</ele>
        <time>2019-11-10T14:41:41Z</time>
      </trkpt>
      <trkpt lat="48.75785" lon="2.26536">
        <ele>138.26</ele>
        <time>2019-11-10T14:42:38Z</time>
      </trkpt>
      <trkpt lat="48.7578" lon="2.26562">
        <ele>136.66</ele>
        <time>2019-11-10T14:43:00Z</time>
      </trkpt>
      <trkpt lat="48.75785" lon="2.26535">
        <ele>134.42</ele>
        <time>2019-11-10T14:43:50Z</time>
      </trkpt>
      <trkpt lat="48.75789" lon="2.26507">
        <ele>134.46</ele>
        <time>2019-11-10T14:44:09Z</time>
      </trkpt>
      <trkpt lat="48.75806" lon="2.26518">
        <ele>137.2</ele>
        <time>2019-11-10T14:45:37Z</time>
      </trkpt>
      <trkpt lat="48.75825" lon="2.26512">
        <ele>136.38</ele>
        <time>2019-11-10T14:46:02Z</time>
      </trkpt>
      <trkpt lat="48.75842" lon="2.26525">
        <ele>135.72</ele>
        <time>2019-11-10T14:46:17Z</time>
      </trkpt>
      <trkpt lat="48.75855" lon="2.26545">
        <ele>136.07</ele>
        <time>2019-11-10T14:46:30Z</time>
      </trkpt>
      <trkpt lat="48.75856" lon="2.26573">
        <ele>136.26</ele>
        <time>2019-11-10T14:47:11Z</time>
      </trkpt>
      <trkpt lat="48.75839" lon="2.26584">
        <ele>134.18</ele>
        <time>2019-11-10T14:47:31Z</time>
      </trkpt>
      <trkpt lat="48.75827" lon="2.26605">
        <ele>130.13</ele>
        <time>2019-11-10T14:49:26Z</time>
      </trkpt>
      <trkpt lat="48.75815" lon="2.26626">
        <ele>130.42</ele>
        <time>2019-11-10T14:49:42Z</time>
      </trkpt>
      <trkpt lat="48.75812" lon="2.26655">
        <ele>128.94</ele>
        <time>2019-11-10T14:50:00Z</time>
      </trkpt>
      <trkpt lat="48.75815" lon="2.26683">
        <ele>126.82</ele>
        <time>2019-11-10T14:50:16Z</time>
      </trkpt>
      <trkpt lat="48.75818" lon="2.2671">
        <ele>125.26</ele>
        <time>2019-11-10T14:50:33Z</time>
      </trkpt>
      <trkpt lat="48.75813" lon="2.26736">
        <ele>122.55</ele>
        <time>2019-11-10T14:50:58Z</time>
      </trkpt>
      <trkpt lat="48.75809" lon="2.26763">
        <ele>119.98</ele>
        <time>2019-11-10T14:51:17Z</time>
      </trkpt>
      <trkpt lat="48.75809" lon="2.26792">
        <ele>118.22</ele>
        <time>2019-11-10T14:51:34Z</time>
      </trkpt>
      <trkpt lat="48.75806" lon="2.26819">
        <ele>116.65</ele>
        <time>2019-11-10T14:51:51Z</time>
      </trkpt>
      <trkpt lat="48.75796" lon="2.26844">
        <ele>115.3</ele>
        <time>2019-11-10T14:52:09Z</time>
      </trkpt>
      <trkpt lat="48.75788" lon="2.2687">
        <ele>113.5</ele>
        <time>2019-11-10T14:52:26Z</time>
      </trkpt>
      <trkpt lat="48.75782" lon="2.26896">
        <ele>112.2</ele>
        <time>2019-11-10T14:52:43Z</time>
      </trkpt>
      <trkpt lat="48.75774" lon="2.26921">
        <ele>111.35</ele>
        <time>2019-11-10T14:52:59Z</time>
      </trkpt>
      <trkpt lat="48.75779" lon="2.26948">
        <ele>110.5</ele>
        <time>2019-11-10T14:53:17Z</time>
      </trkpt>
      <trkpt lat="48.75775" lon="2.26976">
        <ele>109.05</ele>
        <time>2019-11-10T14:54:25Z</time>
      </trkpt>
      <trkpt lat="48.75775" lon="2.27003">
        <ele>108.82</ele>
        <time>2019-11-10T14:54:41Z</time>
      </trkpt>
      <trkpt lat="48.75779" lon="2.27031">
        <ele>108.71</ele>
        <time>2019-11-10T14:54:58Z</time>
      </trkpt>
      <trkpt lat="48.75778" lon="2.27059">
        <ele>109.2</ele>
        <time>2019-11-10T14:55:23Z</time>
      </trkpt>
      <trkpt lat="48.75776" lon="2.27087">
        <ele>108.96</ele>
        <time>2019-11-10T14:55:41Z</time>
      </trkpt>
      <trkpt lat="48.75777" lon="2.27115">
        <ele>109.38</ele>
        <time>2019-11-10T14:55:57Z</time>
      </trkpt>
      <trkpt lat="48.75774" lon="2.27143">
        <ele>109.54</ele>
        <time>2019-11-10T14:56:11Z</time>
      </trkpt>
      <trkpt lat="48.75756" lon="2.27142">
        <ele>109.2</ele>
        <time>2019-11-10T14:56:31Z</time>
      </trkpt>
      <trkpt lat="48.75738" lon="2.27148">
        <ele>108.31</ele>
        <time>2019-11-10T14:56:47Z</time>
      </trkpt>
      <trkpt lat="48.75731" lon="2.27174">
        <ele>107.48</ele>
        <time>2019-11-10T14:57:02Z</time>
      </trkpt>
      <trkpt lat="48.75725" lon="2.27201">
        <ele>106.35</ele>
        <time>2019-11-10T14:57:19Z</time>
      </trkpt>
      <trkpt lat="48.75718" lon="2.27227">
        <ele>105.37</ele>
        <time>2019-11-10T14:57:35Z</time>
      </trkpt>
      <trkpt lat="48.75699" lon="2.27221">
        <ele>104.6</ele>
        <time>2019-11-10T14:57:53Z</time>
      </trkpt>
      <trkpt lat="48.7568" lon="2.27221">
        <ele>104.05</ele>
        <time>2019-11-10T14:58:25Z</time>
      </trkpt>
      <trkpt lat="48.75661" lon="2.27206">
        <ele>104.02</ele>
        <time>2019-11-10T14:58:35Z</time>
      </trkpt>
      <trkpt lat="48.75644" lon="2.27218">
        <ele>102.04</ele>
        <time>2019-11-10T14:59:37Z</time>
      </trkpt>
      <trkpt lat="48.75634" lon="2.27242">
        <ele>100.36</ele>
        <time>2019-11-10T14:59:54Z</time>
      </trkpt>
      <trkpt lat="48.75626" lon="2.27266">
        <ele>98.99</ele>
        <time>2019-11-10T15:00:09Z</time>
      </trkpt>
      <trkpt lat="48.75617" lon="2.27289">
        <ele>97.26</ele>
        <time>2019-11-10T15:00:29Z</time>
      </trkpt>
      <trkpt lat="48.75603" lon="2.27308">
        <ele>95.32</ele>
        <time>2019-11-10T15:00:47Z</time>
      </trkpt>
      <trkpt lat="48.75586" lon="2.2732">
        <ele>93.43</ele>
        <time>2019-11-10T15:01:02Z</time>
      </trkpt>
      <trkpt lat="48.75573" lon="2.27339">
        <ele>92.36</ele>
        <time>2019-11-10T15:01:19Z</time>
      </trkpt>
      <trkpt lat="48.75562" lon="2.27362">
        <ele>92.65</ele>
        <time>2019-11-10T15:01:38Z</time>
      </trkpt>
      <trkpt lat="48.75556" lon="2.27388">
        <ele>93.01</ele>
        <time>2019-11-10T15:01:56Z</time>
      </trkpt>
      <trkpt lat="48.75547" lon="2.27413">
        <ele>93.29</ele>
        <time>2019-11-10T15:02:11Z</time>
      </trkpt>
      <trkpt lat="48.75544" lon="2.27441">
        <ele>93.48</ele>
        <time>2019-11-10T15:02:27Z</time>
      </trkpt>
      <trkpt lat="48.75538" lon="2.27468">
        <ele>92.88</ele>
        <time>2019-11-10T15:02:43Z</time>
      </trkpt>
      <trkpt lat="48.75526" lon="2.27489">
        <ele>91.75</ele>
        <time>2019-11-10T15:03:06Z</time>
      </trkpt>
      <trkpt lat="48.75508" lon="2.27483">
        <ele>91.67</ele>
        <time>2019-11-10T15:03:21Z</time>
      </trkpt>
      <trkpt lat="48.75494" lon="2.27465">
        <ele>92.5</ele>
        <time>2019-11-10T15:03:37Z</time>
      </trkpt>
      <trkpt lat="48.75481" lon="2.27444">
        <ele>93.86</ele>
        <time>2019-11-10T15:03:55Z</time>
      </trkpt>
      <trkpt lat="48.75467" lon="2.27462">
        <ele>94.79</ele>
        <time>2019-11-10T15:05:27Z</time>
      </trkpt>
      <trkpt lat="48.7548" lon="2.27484">
        <ele>94.6</ele>
        <time>2019-11-10T15:05:54Z</time>
      </trkpt>
      <trkpt lat="48.7548" lon="2.27512">
        <ele>92.24</ele>
        <time>2019-11-10T15:06:46Z</time>
      </trkpt>
      <trkpt lat="48.75466" lon="2.27532">
        <ele>91.59</ele>
        <time>2019-11-10T15:07:08Z</time>
      </trkpt>
      <trkpt lat="48.75457" lon="2.27556">
        <ele>91.12</ele>
        <time>2019-11-10T15:07:22Z</time>
      </trkpt>
      <trkpt lat="48.75462" lon="2.27584">
        <ele>89.07</ele>
        <time>2019-11-10T15:07:47Z</time>
      </trkpt>
      <trkpt lat="48.75475" lon="2.27604">
        <ele>89.67</ele>
        <time>2019-11-10T15:08:04Z</time>
      </trkpt>
      <trkpt lat="48.75484" lon="2.27628">
        <ele>91.32</ele>
        <time>2019-11-10T15:08:23Z</time>
      </trkpt>
      <trkpt lat="48.75473" lon="2.27651">
        <ele>91.21</ele>
        <time>2019-11-10T15:08:41Z</time>
      </trkpt>
      <trkpt lat="48.75461" lon="2.27674">
        <ele>90.96</ele>
        <time>2019-11-10T15:08:55Z</time>
      </trkpt>
      <trkpt lat="48.75448" lon="2.27694">
        <ele>90.25</ele>
        <time>2019-11-10T15:09:17Z</time>
      </trkpt>
      <trkpt lat="48.75436" lon="2.27714">
        <ele>89.95</ele>
        <time>2019-11-10T15:09:30Z</time>
      </trkpt>
      <trkpt lat="48.75425" lon="2.27737">
        <ele>89.83</ele>
        <time>2019-11-10T15:09:46Z</time>
      </trkpt>
      <trkpt lat="48.75413" lon="2.27756">
        <ele>89.13</ele>
        <time>2019-11-10T15:10:02Z</time>
      </trkpt>
      <trkpt lat="48.75406" lon="2.27783">
        <ele>89.33</ele>
        <time>2019-11-10T15:10:16Z</time>
      </trkpt>
      <trkpt lat="48.75398" lon="2.27809">
        <ele>89.51</ele>
        <time>2019-11-10T15:10:34Z</time>
      </trkpt>
      <trkpt lat="48.75388" lon="2.27833">
        <ele>89.67</ele>
        <time>2019-11-10T15:10:48Z</time>
      </trkpt>
      <trkpt lat="48.7538" lon="2.27859">
        <ele>90.32</ele>
        <time>2019-11-10T15:11:06Z</time>
      </trkpt>
      <trkpt lat="48.7537" lon="2.27884">
        <ele>89.83</ele>
        <time>2019-11-10T15:11:25Z</time>
      </trkpt>
      <trkpt lat="48.75361" lon="2.27909">
        <ele>89.09</ele>
        <time>2019-11-10T15:11:40Z</time>
      </trkpt>
      <trkpt lat="48.75354" lon="2.27933">
        <ele>87.95</ele>
        <time>2019-11-10T15:11:59Z</time>
      </trkpt>
      <trkpt lat="48.75347" lon="2.27959">
        <ele>86.61</ele>
        <time>2019-11-10T15:12:16Z</time>
      </trkpt>
      <trkpt lat="48.75336" lon="2.27981">
        <ele>85.56</ele>
        <time>2019-11-10T15:12:31Z</time>
      </trkpt>
      <trkpt lat="48.75324" lon="2.28002">
        <ele>84.32</ele>
        <time>2019-11-10T15:12:48Z</time>
      </trkpt>
      <trkpt lat="48.75311" lon="2.28022">
        <ele>83.69</ele>
        <time>2019-11-10T15:13:03Z</time>
      </trkpt>
      <trkpt lat="48.75296" lon="2.28039">
        <ele>82.95</ele>
        <time>2019-11-10T15:13:24Z</time>
      </trkpt>
      <trkpt lat="48.75281" lon="2.28055">
        <ele>83.6</ele>
        <time>2019-11-10T15:13:37Z</time>
      </trkpt>
      <trkpt lat="48.75267" lon="2.28073">
        <ele>84.4</ele>
        <time>2019-11-10T15:13:55Z</time>
      </trkpt>
      <trkpt lat="48.75254" lon="2.28091">
        <ele>84.9</ele>
        <time>2019-11-10T15:14:10Z</time>
      </trkpt>
      <trkpt lat="48.75239" lon="2.28107">
        <ele>85.43</ele>
        <time>2019-11-10T15:14:26Z</time>
      </trkpt>
      <trkpt lat="48.75225" lon="2.28128">
        <ele>85.91</ele>
        <time>2019-11-10T15:14:42Z</time>
      </trkpt>
      <trkpt lat="48.75211" lon="2.28147">
        <ele>86.54</ele>
        <time>2019-11-10T15:14:57Z</time>
      </trkpt>
      <trkpt lat="48.75198" lon="2.28167">
        <ele>86.58</ele>
        <time>2019-11-10T15:15:13Z</time>
      </trkpt>
      <trkpt lat="48.75185" lon="2.28188">
        <ele>86.82</ele>
        <time>2019-11-10T15:15:34Z</time>
      </trkpt>
      <trkpt lat="48.75191" lon="2.28216">
        <ele>86.53</ele>
        <time>2019-11-10T15:15:48Z</time>
      </trkpt>
      <trkpt lat="48.75192" lon="2.28244">
        <ele>86.21</ele>
        <time>2019-11-10T15:16:06Z</time>
      </trkpt>
      <trkpt lat="48.75192" lon="2.28272">
        <ele>86.13</ele>
        <time>2019-11-10T15:16:28Z</time>
      </trkpt>
      <trkpt lat="48.75209" lon="2.28283">
        <ele>86.22</ele>
        <time>2019-11-10T15:16:44Z</time>
      </trkpt>
      <trkpt lat="48.75227" lon="2.28292">
        <ele>86.27</ele>
        <time>2019-11-10T15:16:59Z</time>
      </trkpt>
      <trkpt lat="48.75244" lon="2.28301">
        <ele>86.63</ele>
        <time>2019-11-10T15:17:14Z</time>
      </trkpt>
      <trkpt lat="48.7526" lon="2.28315">
        <ele>87.03</ele>
        <time>2019-11-10T15:17:28Z</time>
      </trkpt>
      <trkpt lat="48.75278" lon="2.28326">
        <ele>87.52</ele>
        <time>2019-11-10T15:17:44Z</time>
      </trkpt>
      <trkpt lat="48.75295" lon="2.28336">
        <ele>88.3</ele>
        <time>2019-11-10T15:18:00Z</time>
      </trkpt>
      <trkpt lat="48.75313" lon="2.28347">
        <ele>89.57</ele>
        <time>2019-11-10T15:18:16Z</time>
      </trkpt>
      <trkpt lat="48.75331" lon="2.28353">
        <ele>90.64</ele>
        <time>2019-11-10T15:18:33Z</time>
      </trkpt>
      <trkpt lat="48.75349" lon="2.2836">
        <ele>90.98</ele>
        <time>2019-11-10T15:18:47Z</time>
      </trkpt>
      <trkpt lat="48.75368" lon="2.28363">
        <ele>90.99</ele>
        <time>2019-11-10T15:19:03Z</time>
      </trkpt>
      <trkpt lat="48.75386" lon="2.28371">
        <ele>90.71</ele>
        <time>2019-11-10T15:19:18Z</time>
      </trkpt>
      <trkpt lat="48.75402" lon="2.28382">
        <ele>89.94</ele>
        <time>2019-11-10T15:19:32Z</time>
      </trkpt>
      <trkpt lat="48.7542" lon="2.28389">
        <ele>89.3</ele>
        <time>2019-11-10T15:19:46Z</time>
      </trkpt>
      <trkpt lat="48.75438" lon="2.28396">
        <ele>88.84</ele>
        <time>2019-11-10T15:20:00Z</time>
      </trkpt>
      <trkpt lat="48.75456" lon="2.28402">
        <ele>88.3</ele>
        <time>2019-11-10T15:20:16Z</time>
      </trkpt>
      <trkpt lat="48.75474" lon="2.28404">
        <ele>88.75</ele>
        <time>2019-11-10T15:20:38Z</time>
      </trkpt>
      <trkpt lat="48.75491" lon="2.28417">
        <ele>88.62</ele>
        <time>2019-11-10T15:20:57Z</time>
      </trkpt>
      <trkpt lat="48.75507" lon="2.28432">
        <ele>89.01</ele>
        <time>2019-11-10T15:21:16Z</time>
      </trkpt>
      <trkpt lat="48.75524" lon="2.28441">
        <ele>89.51</ele>
        <time>2019-11-10T15:21:34Z</time>
      </trkpt>
      <trkpt lat="48.75541" lon="2.28453">
        <ele>88.34</ele>
        <time>2019-11-10T15:21:52Z</time>
      </trkpt>
      <trkpt lat="48.75559" lon="2.28459">
        <ele>87.58</ele>
        <time>2019-11-10T15:22:06Z</time>
      </trkpt>
      <trkpt lat="48.75573" lon="2.28476">
        <ele>89.71</ele>
        <time>2019-11-10T15:23:39Z</time>
      </trkpt>
      <trkpt lat="48.75566" lon="2.28502">
        <ele>90.31</ele>
        <time>2019-11-10T15:23:56Z</time>
      </trkpt>
      <trkpt lat="48.75559" lon="2.28528">
        <ele>90.27</ele>
        <time>2019-11-10T15:24:08Z</time>
      </trkpt>
      <trkpt lat="48.75556" lon="2.28557">
        <ele>90.05</ele>
        <time>2019-11-10T15:24:25Z</time>
      </trkpt>
      <trkpt lat="48.75555" lon="2.28585">
        <ele>90.08</ele>
        <time>2019-11-10T15:24:47Z</time>
      </trkpt>
      <trkpt lat="48.7555" lon="2.28613">
        <ele>89.28</ele>
        <time>2019-11-10T15:25:01Z</time>
      </trkpt>
      <trkpt lat="48.75543" lon="2.2864">
        <ele>87.87</ele>
        <time>2019-11-10T15:25:16Z</time>
      </trkpt>
      <trkpt lat="48.75544" lon="2.28668">
        <ele>86.89</ele>
        <time>2019-11-10T15:25:49Z</time>
      </trkpt>
      <trkpt lat="48.75536" lon="2.28695">
        <ele>86.04</ele>
        <time>2019-11-10T15:26:04Z</time>
      </trkpt>
      <trkpt lat="48.75529" lon="2.28722">
        <ele>83.98</ele>
        <time>2019-11-10T15:26:22Z</time>
      </trkpt>
      <trkpt lat="48.75523" lon="2.28749">
        <ele>83.06</ele>
        <time>2019-11-10T15:26:38Z</time>
      </trkpt>
      <trkpt lat="48.75515" lon="2.28776">
        <ele>82.83</ele>
        <time>2019-11-10T15:26:52Z</time>
      </trkpt>
      <trkpt lat="48.75506" lon="2.28801">
        <ele>82.78</ele>
        <time>2019-11-10T15:27:08Z</time>
      </trkpt>
      <trkpt lat="48.75497" lon="2.28826">
        <ele>82.65</ele>
        <time>2019-11-10T15:27:22Z</time>
      </trkpt>
      <trkpt lat="48.75488" lon="2.28851">
        <ele>82.48</ele>
        <time>2019-11-10T15:27:37Z</time>
      </trkpt>
      <trkpt lat="48.7548" lon="2.28876">
        <ele>82.13</ele>
        <time>2019-11-10T15:27:52Z</time>
      </trkpt>
      <trkpt lat="48.75472" lon="2.28901">
        <ele>81.49</ele>
        <time>2019-11-10T15:28:06Z</time>
      </trkpt>
      <trkpt lat="48.75468" lon="2.28928">
        <ele>80.49</ele>
        <time>2019-11-10T15:28:21Z</time>
      </trkpt>
      <trkpt lat="48.75462" lon="2.28954">
        <ele>79.76</ele>
        <time>2019-11-10T15:28:34Z</time>
      </trkpt>
      <trkpt lat="48.75456" lon="2.28982">
        <ele>79.03</ele>
        <time>2019-11-10T15:28:50Z</time>
      </trkpt>
      <trkpt lat="48.75451" lon="2.29008">
        <ele>78.61</ele>
        <time>2019-11-10T15:29:04Z</time>
      </trkpt>
      <trkpt lat="48.75445" lon="2.29035">
        <ele>78.4</ele>
        <time>2019-11-10T15:29:19Z</time>
      </trkpt>
      <trkpt lat="48.7544" lon="2.29062">
        <ele>79.46</ele>
        <time>2019-11-10T15:29:44Z</time>
      </trkpt>
      <trkpt lat="48.75437" lon="2.2909">
        <ele>79.44</ele>
        <time>2019-11-10T15:30:06Z</time>
      </trkpt>
      <trkpt lat="48.75436" lon="2.29117">
        <ele>78.82</ele>
        <time>2019-11-10T15:30:21Z</time>
      </trkpt>
      <trkpt lat="48.75435" lon="2.29146">
        <ele>78.47</ele>
        <time>2019-11-10T15:30:40Z</time>
      </trkpt>
      <trkpt lat="48.75431" lon="2.29174">
        <ele>78.11</ele>
        <time>2019-11-10T15:30:55Z</time>
      </trkpt>
      <trkpt lat="48.75427" lon="2.29202">
        <ele>77.34</ele>
        <time>2019-11-10T15:31:09Z</time>
      </trkpt>
      <trkpt lat="48.75424" lon="2.29229">
        <ele>76.82</ele>
        <time>2019-11-10T15:31:22Z</time>
      </trkpt>
      <trkpt lat="48.75421" lon="2.29256">
        <ele>77.8</ele>
        <time>2019-11-10T15:31:42Z</time>
      </trkpt>
      <trkpt lat="48.75407" lon="2.29275">
        <ele>78.22</ele>
        <time>2019-11-10T15:32:22Z</time>
      </trkpt>
      <trkpt lat="48.75418" lon="2.29298">
        <ele>76.28</ele>
        <time>2019-11-10T15:32:45Z</time>
      </trkpt>
      <trkpt lat="48.75432" lon="2.29316">
        <ele>75.82</ele>
        <time>2019-11-10T15:33:06Z</time>
      </trkpt>
      <trkpt lat="48.75441" lon="2.2934">
        <ele>76.82</ele>
        <time>2019-11-10T15:33:26Z</time>
      </trkpt>
      <trkpt lat="48.75438" lon="2.29369">
        <ele>75.65</ele>
        <time>2019-11-10T15:33:59Z</time>
      </trkpt>
      <trkpt lat="48.75451" lon="2.29391">
        <ele>75.47</ele>
        <time>2019-11-10T15:34:11Z</time>
      </trkpt>
      <trkpt lat="48.75464" lon="2.29412">
        <ele>75.85</ele>
        <time>2019-11-10T15:34:25Z</time>
      </trkpt>
      <trkpt lat="48.75473" lon="2.29435">
        <ele>77.78</ele>
        <time>2019-11-10T15:34:39Z</time>
      </trkpt>
      <trkpt lat="48.75487" lon="2.29453">
        <ele>79.04</ele>
        <time>2019-11-10T15:34:56Z</time>
      </trkpt>
      <trkpt lat="48.7549" lon="2.29482">
        <ele>78.73</ele>
        <time>2019-11-10T15:35:13Z</time>
      </trkpt>
      <trkpt lat="48.75503" lon="2.29503">
        <ele>78.38</ele>
        <time>2019-11-10T15:35:33Z</time>
      </trkpt>
      <trkpt lat="48.75517" lon="2.29525">
        <ele>79.11</ele>
        <time>2019-11-10T15:35:43Z</time>
      </trkpt>
      <trkpt lat="48.75527" lon="2.29548">
        <ele>79.96</ele>
        <time>2019-11-10T15:35:58Z</time>
      </trkpt>
      <trkpt lat="48.7554" lon="2.29569">
        <ele>80.11</ele>
        <time>2019-11-10T15:36:14Z</time>
      </trkpt>
      <trkpt lat="48.75544" lon="2.29596">
        <ele>78.78</ele>
        <time>2019-11-10T15:36:31Z</time>
      </trkpt>
      <trkpt lat="48.75562" lon="2.29604">
        <ele>74.34</ele>
        <time>2019-11-10T15:37:21Z</time>
      </trkpt>
      <trkpt lat="48.75579" lon="2.29617">
        <ele>74.38</ele>
        <time>2019-11-10T15:37:40Z</time>
      </trkpt>
      <trkpt lat="48.75597" lon="2.29629">
        <ele>75.67</ele>
        <time>2019-11-10T15:37:57Z</time>
      </trkpt>
      <trkpt lat="48.75615" lon="2.29641">
        <ele>79</ele>
        <time>2019-11-10T15:38:09Z</time>
      </trkpt>
      <trkpt lat="48.75629" lon="2.29658">
        <ele>81.98</ele>
        <time>2019-11-10T15:38:22Z</time>
      </trkpt>
      <trkpt lat="48.75636" lon="2.29684">
        <ele>83.2</ele>
        <time>2019-11-10T15:38:41Z</time>
      </trkpt>
      <trkpt lat="48.7564" lon="2.29713">
        <ele>81.94</ele>
        <time>2019-11-10T15:38:57Z</time>
      </trkpt>
      <trkpt lat="48.75641" lon="2.29742">
        <ele>80.34</ele>
        <time>2019-11-10T15:39:11Z</time>
      </trkpt>
      <trkpt lat="48.7564" lon="2.29772">
        <ele>77.77</ele>
        <time>2019-11-10T15:39:26Z</time>
      </trkpt>
      <trkpt lat="48.75642" lon="2.298">
        <ele>75.69</ele>
        <time>2019-11-10T15:39:42Z</time>
      </trkpt>
      <trkpt lat="48.75632" lon="2.29823">
        <ele>74.4</ele>
        <time>2019-11-10T15:40:31Z</time>
      </trkpt>
      <trkpt lat="48.75615" lon="2.29811">
        <ele>74.65</ele>
        <time>2019-11-10T15:40:41Z</time>
      </trkpt>
      <trkpt lat="48.75597" lon="2.29808">
        <ele>74.7</ele>
        <time>2019-11-10T15:40:53Z</time>
      </trkpt>
      <trkpt lat="48.75578" lon="2.29808">
        <ele>74.17</ele>
        <time>2019-11-10T15:41:06Z</time>
      </trkpt>
      <trkpt lat="48.7556" lon="2.29808">
        <ele>73.44</ele>
        <time>2019-11-10T15:41:18Z</time>
      </trkpt>
      <trkpt lat="48.75542" lon="2.29816">
        <ele>71.96</ele>
        <time>2019-11-10T15:41:38Z</time>
      </trkpt>
      <trkpt lat="48.75531" lon="2.29841">
        <ele>70.89</ele>
        <time>2019-11-10T15:41:54Z</time>
      </trkpt>
      <trkpt lat="48.75526" lon="2.29869">
        <ele>69.5</ele>
        <time>2019-11-10T15:42:10Z</time>
      </trkpt>
      <trkpt lat="48.75522" lon="2.29897">
        <ele>67.66</ele>
        <time>2019-11-10T15:42:28Z</time>
      </trkpt>
      <trkpt lat="48.75517" lon="2.29923">
        <ele>66.22</ele>
        <time>2019-11-10T15:42:57Z</time>
      </trkpt>
      <trkpt lat="48.75515" lon="2.2995">
        <ele>64.48</ele>
        <time>2019-11-10T15:44:38Z</time>
      </trkpt>
      <trkpt lat="48.75498" lon="2.29963">
        <ele>63.02</ele>
        <time>2019-11-10T15:46:42Z</time>
      </trkpt>
      <trkpt lat="48.7548" lon="2.29954">
        <ele>62.59</ele>
        <time>2019-11-10T15:46:55Z</time>
      </trkpt>
      <trkpt lat="48.75463" lon="2.29947">
        <ele>60.8</ele>
        <time>2019-11-10T15:47:16Z</time>
      </trkpt>
      <trkpt lat="48.75452" lon="2.2997">
        <ele>60.07</ele>
        <time>2019-11-10T15:47:37Z</time>
      </trkpt>
      <trkpt lat="48.75446" lon="2.29996">
        <ele>60.2</ele>
        <time>2019-11-10T15:47:54Z</time>
      </trkpt>
      <trkpt lat="48.75442" lon="2.30024">
        <ele>59.13</ele>
        <time>2019-11-10T15:48:10Z</time>
      </trkpt>
      <trkpt lat="48.75447" lon="2.30051">
        <ele>58.93</ele>
        <time>2019-11-10T15:48:27Z</time>
      </trkpt>
      <trkpt lat="48.75455" lon="2.30076">
        <ele>62.43</ele>
        <time>2019-11-10T15:49:30Z</time>
      </trkpt>
      <trkpt lat="48.75467" lon="2.30097">
        <ele>63.02</ele>
        <time>2019-11-10T15:49:57Z</time>
      </trkpt>
    </trkseg>
  </trk>
</gpx>